<?xml version="1.0" encoding="UTF-8" standalone="no" ?>
<gpx xmlns="http://www.topografix.com/GPX/1/1" xmlns:xsi="http://www.w3.org/2001/XMLSchema-instance" xsi:schemaLocation="http://www.topografix.com/GPX/1/1 http://www.topografix.com/GPX/1/1/gpx.xsd" version="1.1" creator="VisuGPX - https://www.visugpx.com">
  <metadata>
    <name>MEDIO Granfondo Provence Occitane 010522</name>
  </metadata>
  <trk>
    <name><![CDATA[13933417-GFPO-PETIT-FINAL]]></name>
    <trkseg>
      <trkpt lat="44.21836" lon="4.48528">
        <ele>85</ele>
        <time>2022-04-11T14:47:50Z</time>
      </trkpt>
      <trkpt lat="44.21832" lon="4.4852">
        <ele>84</ele>
        <time>2022-04-11T14:47:51Z</time>
      </trkpt>
      <trkpt lat="44.21853" lon="4.485">
        <ele>83</ele>
        <time>2022-04-11T14:47:56Z</time>
      </trkpt>
      <trkpt lat="44.2197" lon="4.48346">
        <ele>81</ele>
        <time>2022-04-11T14:48:24Z</time>
      </trkpt>
      <trkpt lat="44.2217" lon="4.48047">
        <ele>85</ele>
        <time>2022-04-11T14:49:17Z</time>
      </trkpt>
      <trkpt lat="44.2217" lon="4.48038">
        <ele>84</ele>
        <time>2022-04-11T14:49:18Z</time>
      </trkpt>
      <trkpt lat="44.22164" lon="4.48024">
        <ele>84</ele>
        <time>2022-04-11T14:49:20Z</time>
      </trkpt>
      <trkpt lat="44.22139" lon="4.48002">
        <ele>83</ele>
        <time>2022-04-11T14:49:25Z</time>
      </trkpt>
      <trkpt lat="44.21903" lon="4.47735">
        <ele>77</ele>
        <time>2022-04-11T14:50:19Z</time>
      </trkpt>
      <trkpt lat="44.21872" lon="4.47696">
        <ele>78</ele>
        <time>2022-04-11T14:50:27Z</time>
      </trkpt>
      <trkpt lat="44.21803" lon="4.47617">
        <ele>78</ele>
        <time>2022-04-11T14:50:42Z</time>
      </trkpt>
      <trkpt lat="44.21794" lon="4.47601">
        <ele>77</ele>
        <time>2022-04-11T14:50:45Z</time>
      </trkpt>
      <trkpt lat="44.21672" lon="4.47316">
        <ele>80</ele>
        <time>2022-04-11T14:51:27Z</time>
      </trkpt>
      <trkpt lat="44.21643" lon="4.47239">
        <ele>79</ele>
        <time>2022-04-11T14:51:38Z</time>
      </trkpt>
      <trkpt lat="44.21639" lon="4.47154">
        <ele>78</ele>
        <time>2022-04-11T14:51:49Z</time>
      </trkpt>
      <trkpt lat="44.2164" lon="4.47121">
        <ele>79</ele>
        <time>2022-04-11T14:51:53Z</time>
      </trkpt>
      <trkpt lat="44.21648" lon="4.47064">
        <ele>79</ele>
        <time>2022-04-11T14:52:01Z</time>
      </trkpt>
      <trkpt lat="44.21646" lon="4.47047">
        <ele>79</ele>
        <time>2022-04-11T14:52:03Z</time>
      </trkpt>
      <trkpt lat="44.21642" lon="4.47037">
        <ele>79</ele>
        <time>2022-04-11T14:52:05Z</time>
      </trkpt>
      <trkpt lat="44.21615" lon="4.46997">
        <ele>79</ele>
        <time>2022-04-11T14:52:12Z</time>
      </trkpt>
      <trkpt lat="44.21607" lon="4.46981">
        <ele>79</ele>
        <time>2022-04-11T14:52:14Z</time>
      </trkpt>
      <trkpt lat="44.21586" lon="4.4693">
        <ele>79</ele>
        <time>2022-04-11T14:52:22Z</time>
      </trkpt>
      <trkpt lat="44.21529" lon="4.46806">
        <ele>79</ele>
        <time>2022-04-11T14:52:40Z</time>
      </trkpt>
      <trkpt lat="44.21524" lon="4.468">
        <ele>79</ele>
        <time>2022-04-11T14:52:42Z</time>
      </trkpt>
      <trkpt lat="44.21454" lon="4.46757">
        <ele>81</ele>
        <time>2022-04-11T14:52:55Z</time>
      </trkpt>
      <trkpt lat="44.21429" lon="4.46735">
        <ele>82</ele>
        <time>2022-04-11T14:53:00Z</time>
      </trkpt>
      <trkpt lat="44.21399" lon="4.46717">
        <ele>82</ele>
        <time>2022-04-11T14:53:06Z</time>
      </trkpt>
      <trkpt lat="44.21351" lon="4.46698">
        <ele>82</ele>
        <time>2022-04-11T14:53:15Z</time>
      </trkpt>
      <trkpt lat="44.21329" lon="4.46694">
        <ele>82</ele>
        <time>2022-04-11T14:53:19Z</time>
      </trkpt>
      <trkpt lat="44.21307" lon="4.46696">
        <ele>83</ele>
        <time>2022-04-11T14:53:23Z</time>
      </trkpt>
      <trkpt lat="44.21279" lon="4.4671">
        <ele>82</ele>
        <time>2022-04-11T14:53:28Z</time>
      </trkpt>
      <trkpt lat="44.21246" lon="4.46743">
        <ele>80</ele>
        <time>2022-04-11T14:53:35Z</time>
      </trkpt>
      <trkpt lat="44.21197" lon="4.46798">
        <ele>81</ele>
        <time>2022-04-11T14:53:47Z</time>
      </trkpt>
      <trkpt lat="44.21181" lon="4.46811">
        <ele>81</ele>
        <time>2022-04-11T14:53:50Z</time>
      </trkpt>
      <trkpt lat="44.2116" lon="4.4682">
        <ele>81</ele>
        <time>2022-04-11T14:53:54Z</time>
      </trkpt>
      <trkpt lat="44.21138" lon="4.46821">
        <ele>80</ele>
        <time>2022-04-11T14:53:58Z</time>
      </trkpt>
      <trkpt lat="44.21047" lon="4.4681">
        <ele>79</ele>
        <time>2022-04-11T14:54:14Z</time>
      </trkpt>
      <trkpt lat="44.21027" lon="4.46802">
        <ele>79</ele>
        <time>2022-04-11T14:54:18Z</time>
      </trkpt>
      <trkpt lat="44.20854" lon="4.46695">
        <ele>74</ele>
        <time>2022-04-11T14:54:51Z</time>
      </trkpt>
      <trkpt lat="44.20698" lon="4.46567">
        <ele>78</ele>
        <time>2022-04-11T14:55:24Z</time>
      </trkpt>
      <trkpt lat="44.20665" lon="4.46543">
        <ele>80</ele>
        <time>2022-04-11T14:55:30Z</time>
      </trkpt>
      <trkpt lat="44.20639" lon="4.46532">
        <ele>81</ele>
        <time>2022-04-11T14:55:35Z</time>
      </trkpt>
      <trkpt lat="44.20623" lon="4.46528">
        <ele>81</ele>
        <time>2022-04-11T14:55:38Z</time>
      </trkpt>
      <trkpt lat="44.20612" lon="4.46527">
        <ele>81</ele>
        <time>2022-04-11T14:55:40Z</time>
      </trkpt>
      <trkpt lat="44.20576" lon="4.46531">
        <ele>81</ele>
        <time>2022-04-11T14:55:46Z</time>
      </trkpt>
      <trkpt lat="44.20547" lon="4.46543">
        <ele>80</ele>
        <time>2022-04-11T14:55:52Z</time>
      </trkpt>
      <trkpt lat="44.204" lon="4.46626">
        <ele>83</ele>
        <time>2022-04-11T14:56:20Z</time>
      </trkpt>
      <trkpt lat="44.20387" lon="4.46637">
        <ele>85</ele>
        <time>2022-04-11T14:56:23Z</time>
      </trkpt>
      <trkpt lat="44.20383" lon="4.46643">
        <ele>86</ele>
        <time>2022-04-11T14:56:24Z</time>
      </trkpt>
      <trkpt lat="44.20375" lon="4.46696">
        <ele>88</ele>
        <time>2022-04-11T14:56:31Z</time>
      </trkpt>
      <trkpt lat="44.20372" lon="4.46867">
        <ele>83</ele>
        <time>2022-04-11T14:56:52Z</time>
      </trkpt>
      <trkpt lat="44.20368" lon="4.46883">
        <ele>83</ele>
        <time>2022-04-11T14:56:55Z</time>
      </trkpt>
      <trkpt lat="44.20326" lon="4.4694">
        <ele>83</ele>
        <time>2022-04-11T14:57:05Z</time>
      </trkpt>
      <trkpt lat="44.20316" lon="4.46957">
        <ele>82</ele>
        <time>2022-04-11T14:57:08Z</time>
      </trkpt>
      <trkpt lat="44.20292" lon="4.47019">
        <ele>79</ele>
        <time>2022-04-11T14:57:17Z</time>
      </trkpt>
      <trkpt lat="44.20284" lon="4.47033">
        <ele>78</ele>
        <time>2022-04-11T14:57:19Z</time>
      </trkpt>
      <trkpt lat="44.20265" lon="4.47057">
        <ele>76</ele>
        <time>2022-04-11T14:57:24Z</time>
      </trkpt>
      <trkpt lat="44.20069" lon="4.47203">
        <ele>74</ele>
        <time>2022-04-11T14:58:03Z</time>
      </trkpt>
      <trkpt lat="44.1993" lon="4.47275">
        <ele>74</ele>
        <time>2022-04-11T14:58:30Z</time>
      </trkpt>
      <trkpt lat="44.19915" lon="4.47288">
        <ele>75</ele>
        <time>2022-04-11T14:58:33Z</time>
      </trkpt>
      <trkpt lat="44.199" lon="4.47307">
        <ele>75</ele>
        <time>2022-04-11T14:58:36Z</time>
      </trkpt>
      <trkpt lat="44.19847" lon="4.47398">
        <ele>74</ele>
        <time>2022-04-11T14:58:51Z</time>
      </trkpt>
      <trkpt lat="44.19824" lon="4.47426">
        <ele>74</ele>
        <time>2022-04-11T14:58:57Z</time>
      </trkpt>
      <trkpt lat="44.19757" lon="4.47491">
        <ele>81</ele>
        <time>2022-04-11T14:59:11Z</time>
      </trkpt>
      <trkpt lat="44.1972" lon="4.47544">
        <ele>88</ele>
        <time>2022-04-11T14:59:21Z</time>
      </trkpt>
      <trkpt lat="44.19709" lon="4.47568">
        <ele>89</ele>
        <time>2022-04-11T14:59:24Z</time>
      </trkpt>
      <trkpt lat="44.19693" lon="4.47615">
        <ele>90</ele>
        <time>2022-04-11T14:59:31Z</time>
      </trkpt>
      <trkpt lat="44.19677" lon="4.47709">
        <ele>85</ele>
        <time>2022-04-11T14:59:43Z</time>
      </trkpt>
      <trkpt lat="44.19666" lon="4.47733">
        <ele>85</ele>
        <time>2022-04-11T14:59:47Z</time>
      </trkpt>
      <trkpt lat="44.19644" lon="4.47749">
        <ele>86</ele>
        <time>2022-04-11T14:59:51Z</time>
      </trkpt>
      <trkpt lat="44.19571" lon="4.47778">
        <ele>89</ele>
        <time>2022-04-11T15:00:05Z</time>
      </trkpt>
      <trkpt lat="44.19532" lon="4.47805">
        <ele>87</ele>
        <time>2022-04-11T15:00:13Z</time>
      </trkpt>
      <trkpt lat="44.19407" lon="4.4793">
        <ele>81</ele>
        <time>2022-04-11T15:00:40Z</time>
      </trkpt>
      <trkpt lat="44.19156" lon="4.4817">
        <ele>78</ele>
        <time>2022-04-11T15:01:34Z</time>
      </trkpt>
      <trkpt lat="44.19127" lon="4.4819">
        <ele>78</ele>
        <time>2022-04-11T15:01:40Z</time>
      </trkpt>
      <trkpt lat="44.19079" lon="4.48204">
        <ele>78</ele>
        <time>2022-04-11T15:01:49Z</time>
      </trkpt>
      <trkpt lat="44.19055" lon="4.48202">
        <ele>79</ele>
        <time>2022-04-11T15:01:53Z</time>
      </trkpt>
      <trkpt lat="44.18893" lon="4.48163">
        <ele>82</ele>
        <time>2022-04-11T15:02:22Z</time>
      </trkpt>
      <trkpt lat="44.18871" lon="4.48152">
        <ele>84</ele>
        <time>2022-04-11T15:02:26Z</time>
      </trkpt>
      <trkpt lat="44.18855" lon="4.48137">
        <ele>84</ele>
        <time>2022-04-11T15:02:30Z</time>
      </trkpt>
      <trkpt lat="44.18838" lon="4.48114">
        <ele>84</ele>
        <time>2022-04-11T15:02:34Z</time>
      </trkpt>
      <trkpt lat="44.18745" lon="4.47942">
        <ele>80</ele>
        <time>2022-04-11T15:03:01Z</time>
      </trkpt>
      <trkpt lat="44.1873" lon="4.4792">
        <ele>79</ele>
        <time>2022-04-11T15:03:05Z</time>
      </trkpt>
      <trkpt lat="44.18551" lon="4.47742">
        <ele>80</ele>
        <time>2022-04-11T15:03:44Z</time>
      </trkpt>
      <trkpt lat="44.18538" lon="4.47735">
        <ele>81</ele>
        <time>2022-04-11T15:03:47Z</time>
      </trkpt>
      <trkpt lat="44.18518" lon="4.47731">
        <ele>81</ele>
        <time>2022-04-11T15:03:50Z</time>
      </trkpt>
      <trkpt lat="44.18357" lon="4.47725">
        <ele>85</ele>
        <time>2022-04-11T15:04:19Z</time>
      </trkpt>
      <trkpt lat="44.18354" lon="4.4772">
        <ele>85</ele>
        <time>2022-04-11T15:04:20Z</time>
      </trkpt>
      <trkpt lat="44.18348" lon="4.47665">
        <ele>84</ele>
        <time>2022-04-11T15:04:27Z</time>
      </trkpt>
      <trkpt lat="44.18292" lon="4.47403">
        <ele>80</ele>
        <time>2022-04-11T15:05:02Z</time>
      </trkpt>
      <trkpt lat="44.18189" lon="4.46896">
        <ele>89</ele>
        <time>2022-04-11T15:06:09Z</time>
      </trkpt>
      <trkpt lat="44.1819" lon="4.4687">
        <ele>89</ele>
        <time>2022-04-11T15:06:12Z</time>
      </trkpt>
      <trkpt lat="44.18206" lon="4.46734">
        <ele>87</ele>
        <time>2022-04-11T15:06:30Z</time>
      </trkpt>
      <trkpt lat="44.18206" lon="4.46673">
        <ele>89</ele>
        <time>2022-04-11T15:06:38Z</time>
      </trkpt>
      <trkpt lat="44.182" lon="4.4665">
        <ele>90</ele>
        <time>2022-04-11T15:06:41Z</time>
      </trkpt>
      <trkpt lat="44.18191" lon="4.4663">
        <ele>90</ele>
        <time>2022-04-11T15:06:44Z</time>
      </trkpt>
      <trkpt lat="44.18171" lon="4.46598">
        <ele>90</ele>
        <time>2022-04-11T15:06:49Z</time>
      </trkpt>
      <trkpt lat="44.18096" lon="4.46491">
        <ele>92</ele>
        <time>2022-04-11T15:07:08Z</time>
      </trkpt>
      <trkpt lat="44.18032" lon="4.46411">
        <ele>100</ele>
        <time>2022-04-11T15:07:24Z</time>
      </trkpt>
      <trkpt lat="44.18025" lon="4.46398">
        <ele>101</ele>
        <time>2022-04-11T15:07:26Z</time>
      </trkpt>
      <trkpt lat="44.18009" lon="4.46354">
        <ele>100</ele>
        <time>2022-04-11T15:07:32Z</time>
      </trkpt>
      <trkpt lat="44.17982" lon="4.46259">
        <ele>98</ele>
        <time>2022-04-11T15:07:45Z</time>
      </trkpt>
      <trkpt lat="44.1797" lon="4.46196">
        <ele>101</ele>
        <time>2022-04-11T15:07:53Z</time>
      </trkpt>
      <trkpt lat="44.17971" lon="4.46082">
        <ele>97</ele>
        <time>2022-04-11T15:08:08Z</time>
      </trkpt>
      <trkpt lat="44.17966" lon="4.46046">
        <ele>95</ele>
        <time>2022-04-11T15:08:13Z</time>
      </trkpt>
      <trkpt lat="44.17956" lon="4.4602">
        <ele>96</ele>
        <time>2022-04-11T15:08:16Z</time>
      </trkpt>
      <trkpt lat="44.17922" lon="4.45969">
        <ele>98</ele>
        <time>2022-04-11T15:08:25Z</time>
      </trkpt>
      <trkpt lat="44.17909" lon="4.45936">
        <ele>97</ele>
        <time>2022-04-11T15:08:30Z</time>
      </trkpt>
      <trkpt lat="44.17852" lon="4.45594">
        <ele>90</ele>
        <time>2022-04-11T15:09:15Z</time>
      </trkpt>
      <trkpt lat="44.17841" lon="4.45541">
        <ele>91</ele>
        <time>2022-04-11T15:09:22Z</time>
      </trkpt>
      <trkpt lat="44.17827" lon="4.45504">
        <ele>94</ele>
        <time>2022-04-11T15:09:27Z</time>
      </trkpt>
      <trkpt lat="44.17775" lon="4.45406">
        <ele>100</ele>
        <time>2022-04-11T15:09:43Z</time>
      </trkpt>
      <trkpt lat="44.1777" lon="4.45392">
        <ele>100</ele>
        <time>2022-04-11T15:09:45Z</time>
      </trkpt>
      <trkpt lat="44.17765" lon="4.45365">
        <ele>99</ele>
        <time>2022-04-11T15:09:48Z</time>
      </trkpt>
      <trkpt lat="44.17765" lon="4.45335">
        <ele>98</ele>
        <time>2022-04-11T15:09:52Z</time>
      </trkpt>
      <trkpt lat="44.17771" lon="4.45156">
        <ele>94</ele>
        <time>2022-04-11T15:10:15Z</time>
      </trkpt>
      <trkpt lat="44.17769" lon="4.45123">
        <ele>92</ele>
        <time>2022-04-11T15:10:19Z</time>
      </trkpt>
      <trkpt lat="44.17758" lon="4.45087">
        <ele>90</ele>
        <time>2022-04-11T15:10:24Z</time>
      </trkpt>
      <trkpt lat="44.17747" lon="4.45066">
        <ele>89</ele>
        <time>2022-04-11T15:10:28Z</time>
      </trkpt>
      <trkpt lat="44.17691" lon="4.44989">
        <ele>88</ele>
        <time>2022-04-11T15:10:42Z</time>
      </trkpt>
      <trkpt lat="44.17662" lon="4.44953">
        <ele>89</ele>
        <time>2022-04-11T15:10:49Z</time>
      </trkpt>
      <trkpt lat="44.17635" lon="4.44927">
        <ele>90</ele>
        <time>2022-04-11T15:10:54Z</time>
      </trkpt>
      <trkpt lat="44.17605" lon="4.44915">
        <ele>92</ele>
        <time>2022-04-11T15:11:00Z</time>
      </trkpt>
      <trkpt lat="44.17441" lon="4.44868">
        <ele>96</ele>
        <time>2022-04-11T15:11:30Z</time>
      </trkpt>
      <trkpt lat="44.17377" lon="4.44828">
        <ele>98</ele>
        <time>2022-04-11T15:11:42Z</time>
      </trkpt>
      <trkpt lat="44.17344" lon="4.44802">
        <ele>99</ele>
        <time>2022-04-11T15:11:49Z</time>
      </trkpt>
      <trkpt lat="44.17326" lon="4.44781">
        <ele>100</ele>
        <time>2022-04-11T15:11:53Z</time>
      </trkpt>
      <trkpt lat="44.17257" lon="4.44676">
        <ele>108</ele>
        <time>2022-04-11T15:12:11Z</time>
      </trkpt>
      <trkpt lat="44.17239" lon="4.44652">
        <ele>110</ele>
        <time>2022-04-11T15:12:16Z</time>
      </trkpt>
      <trkpt lat="44.17181" lon="4.44608">
        <ele>115</ele>
        <time>2022-04-11T15:12:28Z</time>
      </trkpt>
      <trkpt lat="44.17129" lon="4.4456">
        <ele>120</ele>
        <time>2022-04-11T15:12:39Z</time>
      </trkpt>
      <trkpt lat="44.1711" lon="4.44556">
        <ele>120</ele>
        <time>2022-04-11T15:12:42Z</time>
      </trkpt>
      <trkpt lat="44.17074" lon="4.44558">
        <ele>121</ele>
        <time>2022-04-11T15:12:48Z</time>
      </trkpt>
      <trkpt lat="44.17044" lon="4.44548">
        <ele>124</ele>
        <time>2022-04-11T15:12:54Z</time>
      </trkpt>
      <trkpt lat="44.17035" lon="4.44548">
        <ele>125</ele>
        <time>2022-04-11T15:12:56Z</time>
      </trkpt>
      <trkpt lat="44.17028" lon="4.44552">
        <ele>125</ele>
        <time>2022-04-11T15:12:57Z</time>
      </trkpt>
      <trkpt lat="44.17015" lon="4.44566">
        <ele>124</ele>
        <time>2022-04-11T15:13:00Z</time>
      </trkpt>
      <trkpt lat="44.16994" lon="4.44578">
        <ele>124</ele>
        <time>2022-04-11T15:13:04Z</time>
      </trkpt>
      <trkpt lat="44.16918" lon="4.44638">
        <ele>126</ele>
        <time>2022-04-11T15:13:19Z</time>
      </trkpt>
      <trkpt lat="44.1689" lon="4.44668">
        <ele>125</ele>
        <time>2022-04-11T15:13:26Z</time>
      </trkpt>
      <trkpt lat="44.16854" lon="4.44695">
        <ele>125</ele>
        <time>2022-04-11T15:13:33Z</time>
      </trkpt>
      <trkpt lat="44.1683" lon="4.44709">
        <ele>125</ele>
        <time>2022-04-11T15:13:38Z</time>
      </trkpt>
      <trkpt lat="44.16784" lon="4.44728">
        <ele>126</ele>
        <time>2022-04-11T15:13:46Z</time>
      </trkpt>
      <trkpt lat="44.16753" lon="4.44672">
        <ele>129</ele>
        <time>2022-04-11T15:13:55Z</time>
      </trkpt>
      <trkpt lat="44.16748" lon="4.44655">
        <ele>130</ele>
        <time>2022-04-11T15:13:57Z</time>
      </trkpt>
      <trkpt lat="44.16747" lon="4.44627">
        <ele>132</ele>
        <time>2022-04-11T15:14:01Z</time>
      </trkpt>
      <trkpt lat="44.16754" lon="4.44601">
        <ele>134</ele>
        <time>2022-04-11T15:14:05Z</time>
      </trkpt>
      <trkpt lat="44.16804" lon="4.44536">
        <ele>136</ele>
        <time>2022-04-11T15:14:17Z</time>
      </trkpt>
      <trkpt lat="44.16814" lon="4.44508">
        <ele>136</ele>
        <time>2022-04-11T15:14:21Z</time>
      </trkpt>
      <trkpt lat="44.16815" lon="4.4448">
        <ele>138</ele>
        <time>2022-04-11T15:14:24Z</time>
      </trkpt>
      <trkpt lat="44.16808" lon="4.44458">
        <ele>140</ele>
        <time>2022-04-11T15:14:27Z</time>
      </trkpt>
      <trkpt lat="44.16795" lon="4.44433">
        <ele>141</ele>
        <time>2022-04-11T15:14:31Z</time>
      </trkpt>
      <trkpt lat="44.16745" lon="4.4439">
        <ele>143</ele>
        <time>2022-04-11T15:14:42Z</time>
      </trkpt>
      <trkpt lat="44.16731" lon="4.44368">
        <ele>148</ele>
        <time>2022-04-11T15:14:46Z</time>
      </trkpt>
      <trkpt lat="44.16725" lon="4.44352">
        <ele>150</ele>
        <time>2022-04-11T15:14:48Z</time>
      </trkpt>
      <trkpt lat="44.1672" lon="4.44316">
        <ele>153</ele>
        <time>2022-04-11T15:14:53Z</time>
      </trkpt>
      <trkpt lat="44.16724" lon="4.44274">
        <ele>155</ele>
        <time>2022-04-11T15:14:58Z</time>
      </trkpt>
      <trkpt lat="44.16723" lon="4.44254">
        <ele>156</ele>
        <time>2022-04-11T15:15:00Z</time>
      </trkpt>
      <trkpt lat="44.16712" lon="4.44207">
        <ele>160</ele>
        <time>2022-04-11T15:15:07Z</time>
      </trkpt>
      <trkpt lat="44.16702" lon="4.44196">
        <ele>160</ele>
        <time>2022-04-11T15:15:09Z</time>
      </trkpt>
      <trkpt lat="44.16652" lon="4.44158">
        <ele>161</ele>
        <time>2022-04-11T15:15:19Z</time>
      </trkpt>
      <trkpt lat="44.16576" lon="4.44033">
        <ele>167</ele>
        <time>2022-04-11T15:15:40Z</time>
      </trkpt>
      <trkpt lat="44.16565" lon="4.4401">
        <ele>168</ele>
        <time>2022-04-11T15:15:44Z</time>
      </trkpt>
      <trkpt lat="44.16564" lon="4.43976">
        <ele>168</ele>
        <time>2022-04-11T15:15:48Z</time>
      </trkpt>
      <trkpt lat="44.16595" lon="4.43905">
        <ele>172</ele>
        <time>2022-04-11T15:15:59Z</time>
      </trkpt>
      <trkpt lat="44.16603" lon="4.43879">
        <ele>175</ele>
        <time>2022-04-11T15:16:02Z</time>
      </trkpt>
      <trkpt lat="44.16601" lon="4.43855">
        <ele>174</ele>
        <time>2022-04-11T15:16:05Z</time>
      </trkpt>
      <trkpt lat="44.16596" lon="4.43835">
        <ele>172</ele>
        <time>2022-04-11T15:16:08Z</time>
      </trkpt>
      <trkpt lat="44.16591" lon="4.43825">
        <ele>171</ele>
        <time>2022-04-11T15:16:10Z</time>
      </trkpt>
      <trkpt lat="44.16505" lon="4.43729">
        <ele>174</ele>
        <time>2022-04-11T15:16:29Z</time>
      </trkpt>
      <trkpt lat="44.16498" lon="4.4372">
        <ele>175</ele>
        <time>2022-04-11T15:16:31Z</time>
      </trkpt>
      <trkpt lat="44.1649" lon="4.43696">
        <ele>176</ele>
        <time>2022-04-11T15:16:34Z</time>
      </trkpt>
      <trkpt lat="44.16491" lon="4.43671">
        <ele>175</ele>
        <time>2022-04-11T15:16:37Z</time>
      </trkpt>
      <trkpt lat="44.16495" lon="4.43661">
        <ele>175</ele>
        <time>2022-04-11T15:16:39Z</time>
      </trkpt>
      <trkpt lat="44.16536" lon="4.43609">
        <ele>177</ele>
        <time>2022-04-11T15:16:49Z</time>
      </trkpt>
      <trkpt lat="44.16544" lon="4.43594">
        <ele>178</ele>
        <time>2022-04-11T15:16:51Z</time>
      </trkpt>
      <trkpt lat="44.16552" lon="4.43561">
        <ele>181</ele>
        <time>2022-04-11T15:16:56Z</time>
      </trkpt>
      <trkpt lat="44.16552" lon="4.43531">
        <ele>184</ele>
        <time>2022-04-11T15:16:59Z</time>
      </trkpt>
      <trkpt lat="44.16548" lon="4.43516">
        <ele>185</ele>
        <time>2022-04-11T15:17:01Z</time>
      </trkpt>
      <trkpt lat="44.16511" lon="4.43433">
        <ele>187</ele>
        <time>2022-04-11T15:17:14Z</time>
      </trkpt>
      <trkpt lat="44.16497" lon="4.43411">
        <ele>186</ele>
        <time>2022-04-11T15:17:18Z</time>
      </trkpt>
      <trkpt lat="44.16448" lon="4.43393">
        <ele>191</ele>
        <time>2022-04-11T15:17:27Z</time>
      </trkpt>
      <trkpt lat="44.16435" lon="4.43386">
        <ele>192</ele>
        <time>2022-04-11T15:17:29Z</time>
      </trkpt>
      <trkpt lat="44.1642" lon="4.43369">
        <ele>191</ele>
        <time>2022-04-11T15:17:33Z</time>
      </trkpt>
      <trkpt lat="44.16413" lon="4.43355">
        <ele>191</ele>
        <time>2022-04-11T15:17:35Z</time>
      </trkpt>
      <trkpt lat="44.16401" lon="4.43289">
        <ele>194</ele>
        <time>2022-04-11T15:17:43Z</time>
      </trkpt>
      <trkpt lat="44.16392" lon="4.43273">
        <ele>195</ele>
        <time>2022-04-11T15:17:46Z</time>
      </trkpt>
      <trkpt lat="44.16386" lon="4.43269">
        <ele>196</ele>
        <time>2022-04-11T15:17:47Z</time>
      </trkpt>
      <trkpt lat="44.16377" lon="4.43268">
        <ele>196</ele>
        <time>2022-04-11T15:17:49Z</time>
      </trkpt>
      <trkpt lat="44.16337" lon="4.43276">
        <ele>196</ele>
        <time>2022-04-11T15:17:56Z</time>
      </trkpt>
      <trkpt lat="44.16249" lon="4.43302">
        <ele>203</ele>
        <time>2022-04-11T15:18:12Z</time>
      </trkpt>
      <trkpt lat="44.16237" lon="4.43303">
        <ele>204</ele>
        <time>2022-04-11T15:18:14Z</time>
      </trkpt>
      <trkpt lat="44.16226" lon="4.433">
        <ele>205</ele>
        <time>2022-04-11T15:18:16Z</time>
      </trkpt>
      <trkpt lat="44.16216" lon="4.43291">
        <ele>205</ele>
        <time>2022-04-11T15:18:18Z</time>
      </trkpt>
      <trkpt lat="44.16197" lon="4.43264">
        <ele>204</ele>
        <time>2022-04-11T15:18:23Z</time>
      </trkpt>
      <trkpt lat="44.16188" lon="4.4326">
        <ele>205</ele>
        <time>2022-04-11T15:18:25Z</time>
      </trkpt>
      <trkpt lat="44.16177" lon="4.43259">
        <ele>205</ele>
        <time>2022-04-11T15:18:27Z</time>
      </trkpt>
      <trkpt lat="44.1612" lon="4.43284">
        <ele>214</ele>
        <time>2022-04-11T15:18:37Z</time>
      </trkpt>
      <trkpt lat="44.16109" lon="4.43286">
        <ele>215</ele>
        <time>2022-04-11T15:18:39Z</time>
      </trkpt>
      <trkpt lat="44.16098" lon="4.43284">
        <ele>216</ele>
        <time>2022-04-11T15:18:41Z</time>
      </trkpt>
      <trkpt lat="44.1609" lon="4.43277">
        <ele>216</ele>
        <time>2022-04-11T15:18:43Z</time>
      </trkpt>
      <trkpt lat="44.16085" lon="4.43266">
        <ele>215</ele>
        <time>2022-04-11T15:18:45Z</time>
      </trkpt>
      <trkpt lat="44.16083" lon="4.43253">
        <ele>214</ele>
        <time>2022-04-11T15:18:46Z</time>
      </trkpt>
      <trkpt lat="44.16093" lon="4.43203">
        <ele>216</ele>
        <time>2022-04-11T15:18:53Z</time>
      </trkpt>
      <trkpt lat="44.16089" lon="4.43174">
        <ele>218</ele>
        <time>2022-04-11T15:18:57Z</time>
      </trkpt>
      <trkpt lat="44.16072" lon="4.43139">
        <ele>220</ele>
        <time>2022-04-11T15:19:02Z</time>
      </trkpt>
      <trkpt lat="44.16038" lon="4.4305">
        <ele>223</ele>
        <time>2022-04-11T15:19:15Z</time>
      </trkpt>
      <trkpt lat="44.16032" lon="4.43044">
        <ele>223</ele>
        <time>2022-04-11T15:19:16Z</time>
      </trkpt>
      <trkpt lat="44.16023" lon="4.4304">
        <ele>223</ele>
        <time>2022-04-11T15:19:18Z</time>
      </trkpt>
      <trkpt lat="44.16013" lon="4.43041">
        <ele>222</ele>
        <time>2022-04-11T15:19:20Z</time>
      </trkpt>
      <trkpt lat="44.15972" lon="4.43058">
        <ele>223</ele>
        <time>2022-04-11T15:19:27Z</time>
      </trkpt>
      <trkpt lat="44.15959" lon="4.43059">
        <ele>224</ele>
        <time>2022-04-11T15:19:30Z</time>
      </trkpt>
      <trkpt lat="44.15948" lon="4.43057">
        <ele>225</ele>
        <time>2022-04-11T15:19:32Z</time>
      </trkpt>
      <trkpt lat="44.15938" lon="4.43052">
        <ele>225</ele>
        <time>2022-04-11T15:19:34Z</time>
      </trkpt>
      <trkpt lat="44.15932" lon="4.43042">
        <ele>225</ele>
        <time>2022-04-11T15:19:35Z</time>
      </trkpt>
      <trkpt lat="44.15912" lon="4.4299">
        <ele>223</ele>
        <time>2022-04-11T15:19:43Z</time>
      </trkpt>
      <trkpt lat="44.15894" lon="4.42973">
        <ele>225</ele>
        <time>2022-04-11T15:19:47Z</time>
      </trkpt>
      <trkpt lat="44.15871" lon="4.42964">
        <ele>227</ele>
        <time>2022-04-11T15:19:51Z</time>
      </trkpt>
      <trkpt lat="44.15856" lon="4.42952">
        <ele>228</ele>
        <time>2022-04-11T15:19:54Z</time>
      </trkpt>
      <trkpt lat="44.15844" lon="4.42931">
        <ele>227</ele>
        <time>2022-04-11T15:19:57Z</time>
      </trkpt>
      <trkpt lat="44.15837" lon="4.429">
        <ele>226</ele>
        <time>2022-04-11T15:20:02Z</time>
      </trkpt>
      <trkpt lat="44.1583" lon="4.42843">
        <ele>228</ele>
        <time>2022-04-11T15:20:09Z</time>
      </trkpt>
      <trkpt lat="44.15825" lon="4.42829">
        <ele>229</ele>
        <time>2022-04-11T15:20:11Z</time>
      </trkpt>
      <trkpt lat="44.15818" lon="4.42818">
        <ele>231</ele>
        <time>2022-04-11T15:20:13Z</time>
      </trkpt>
      <trkpt lat="44.15742" lon="4.42737">
        <ele>233</ele>
        <time>2022-04-11T15:20:30Z</time>
      </trkpt>
      <trkpt lat="44.15719" lon="4.42688">
        <ele>239</ele>
        <time>2022-04-11T15:20:37Z</time>
      </trkpt>
      <trkpt lat="44.15713" lon="4.42649">
        <ele>242</ele>
        <time>2022-04-11T15:20:42Z</time>
      </trkpt>
      <trkpt lat="44.15719" lon="4.42622">
        <ele>242</ele>
        <time>2022-04-11T15:20:46Z</time>
      </trkpt>
      <trkpt lat="44.15725" lon="4.42615">
        <ele>241</ele>
        <time>2022-04-11T15:20:47Z</time>
      </trkpt>
      <trkpt lat="44.15751" lon="4.42605">
        <ele>235</ele>
        <time>2022-04-11T15:20:52Z</time>
      </trkpt>
      <trkpt lat="44.15757" lon="4.42601">
        <ele>236</ele>
        <time>2022-04-11T15:20:53Z</time>
      </trkpt>
      <trkpt lat="44.15761" lon="4.42594">
        <ele>237</ele>
        <time>2022-04-11T15:20:55Z</time>
      </trkpt>
      <trkpt lat="44.15765" lon="4.42583">
        <ele>238</ele>
        <time>2022-04-11T15:20:56Z</time>
      </trkpt>
      <trkpt lat="44.15768" lon="4.42547">
        <ele>241</ele>
        <time>2022-04-11T15:21:01Z</time>
      </trkpt>
      <trkpt lat="44.15772" lon="4.42533">
        <ele>243</ele>
        <time>2022-04-11T15:21:03Z</time>
      </trkpt>
      <trkpt lat="44.15792" lon="4.42505">
        <ele>245</ele>
        <time>2022-04-11T15:21:08Z</time>
      </trkpt>
      <trkpt lat="44.15812" lon="4.42471">
        <ele>246</ele>
        <time>2022-04-11T15:21:13Z</time>
      </trkpt>
      <trkpt lat="44.15816" lon="4.42457">
        <ele>246</ele>
        <time>2022-04-11T15:21:15Z</time>
      </trkpt>
      <trkpt lat="44.15817" lon="4.42442">
        <ele>246</ele>
        <time>2022-04-11T15:21:17Z</time>
      </trkpt>
      <trkpt lat="44.1581" lon="4.42419">
        <ele>246</ele>
        <time>2022-04-11T15:21:20Z</time>
      </trkpt>
      <trkpt lat="44.15777" lon="4.42372">
        <ele>248</ele>
        <time>2022-04-11T15:21:29Z</time>
      </trkpt>
      <trkpt lat="44.15772" lon="4.4236">
        <ele>248</ele>
        <time>2022-04-11T15:21:31Z</time>
      </trkpt>
      <trkpt lat="44.15772" lon="4.42349">
        <ele>248</ele>
        <time>2022-04-11T15:21:32Z</time>
      </trkpt>
      <trkpt lat="44.15785" lon="4.42303">
        <ele>249</ele>
        <time>2022-04-11T15:21:38Z</time>
      </trkpt>
      <trkpt lat="44.15784" lon="4.42291">
        <ele>249</ele>
        <time>2022-04-11T15:21:40Z</time>
      </trkpt>
      <trkpt lat="44.15772" lon="4.42253">
        <ele>250</ele>
        <time>2022-04-11T15:21:45Z</time>
      </trkpt>
      <trkpt lat="44.15757" lon="4.42226">
        <ele>249</ele>
        <time>2022-04-11T15:21:49Z</time>
      </trkpt>
      <trkpt lat="44.15754" lon="4.42201">
        <ele>248</ele>
        <time>2022-04-11T15:21:53Z</time>
      </trkpt>
      <trkpt lat="44.15758" lon="4.42174">
        <ele>248</ele>
        <time>2022-04-11T15:21:56Z</time>
      </trkpt>
      <trkpt lat="44.15755" lon="4.42145">
        <ele>249</ele>
        <time>2022-04-11T15:22:00Z</time>
      </trkpt>
      <trkpt lat="44.15751" lon="4.42133">
        <ele>250</ele>
        <time>2022-04-11T15:22:02Z</time>
      </trkpt>
      <trkpt lat="44.15744" lon="4.42122">
        <ele>251</ele>
        <time>2022-04-11T15:22:04Z</time>
      </trkpt>
      <trkpt lat="44.15733" lon="4.42112">
        <ele>252</ele>
        <time>2022-04-11T15:22:06Z</time>
      </trkpt>
      <trkpt lat="44.15712" lon="4.42099">
        <ele>252</ele>
        <time>2022-04-11T15:22:10Z</time>
      </trkpt>
      <trkpt lat="44.15686" lon="4.42094">
        <ele>251</ele>
        <time>2022-04-11T15:22:15Z</time>
      </trkpt>
      <trkpt lat="44.15671" lon="4.42094">
        <ele>250</ele>
        <time>2022-04-11T15:22:17Z</time>
      </trkpt>
      <trkpt lat="44.15653" lon="4.42098">
        <ele>250</ele>
        <time>2022-04-11T15:22:21Z</time>
      </trkpt>
      <trkpt lat="44.15634" lon="4.42108">
        <ele>250</ele>
        <time>2022-04-11T15:22:24Z</time>
      </trkpt>
      <trkpt lat="44.15626" lon="4.42117">
        <ele>250</ele>
        <time>2022-04-11T15:22:26Z</time>
      </trkpt>
      <trkpt lat="44.15606" lon="4.42154">
        <ele>251</ele>
        <time>2022-04-11T15:22:32Z</time>
      </trkpt>
      <trkpt lat="44.15593" lon="4.42164">
        <ele>251</ele>
        <time>2022-04-11T15:22:35Z</time>
      </trkpt>
      <trkpt lat="44.15573" lon="4.42156">
        <ele>252</ele>
        <time>2022-04-11T15:22:38Z</time>
      </trkpt>
      <trkpt lat="44.15557" lon="4.42128">
        <ele>252</ele>
        <time>2022-04-11T15:22:43Z</time>
      </trkpt>
      <trkpt lat="44.15552" lon="4.42109">
        <ele>252</ele>
        <time>2022-04-11T15:22:45Z</time>
      </trkpt>
      <trkpt lat="44.15536" lon="4.41965">
        <ele>255</ele>
        <time>2022-04-11T15:23:04Z</time>
      </trkpt>
      <trkpt lat="44.15536" lon="4.41928">
        <ele>257</ele>
        <time>2022-04-11T15:23:09Z</time>
      </trkpt>
      <trkpt lat="44.15548" lon="4.41856">
        <ele>258</ele>
        <time>2022-04-11T15:23:18Z</time>
      </trkpt>
      <trkpt lat="44.15549" lon="4.41836">
        <ele>259</ele>
        <time>2022-04-11T15:23:21Z</time>
      </trkpt>
      <trkpt lat="44.15541" lon="4.41771">
        <ele>259</ele>
        <time>2022-04-11T15:23:29Z</time>
      </trkpt>
      <trkpt lat="44.15542" lon="4.4176">
        <ele>259</ele>
        <time>2022-04-11T15:23:31Z</time>
      </trkpt>
      <trkpt lat="44.15546" lon="4.4175">
        <ele>258</ele>
        <time>2022-04-11T15:23:32Z</time>
      </trkpt>
      <trkpt lat="44.15552" lon="4.41743">
        <ele>259</ele>
        <time>2022-04-11T15:23:33Z</time>
      </trkpt>
      <trkpt lat="44.15561" lon="4.41736">
        <ele>259</ele>
        <time>2022-04-11T15:23:35Z</time>
      </trkpt>
      <trkpt lat="44.15574" lon="4.4173">
        <ele>259</ele>
        <time>2022-04-11T15:23:38Z</time>
      </trkpt>
      <trkpt lat="44.15592" lon="4.41726">
        <ele>259</ele>
        <time>2022-04-11T15:23:41Z</time>
      </trkpt>
      <trkpt lat="44.15622" lon="4.4171">
        <ele>260</ele>
        <time>2022-04-11T15:23:47Z</time>
      </trkpt>
      <trkpt lat="44.15679" lon="4.41658">
        <ele>260</ele>
        <time>2022-04-11T15:23:59Z</time>
      </trkpt>
      <trkpt lat="44.15692" lon="4.41643">
        <ele>261</ele>
        <time>2022-04-11T15:24:02Z</time>
      </trkpt>
      <trkpt lat="44.15751" lon="4.41546">
        <ele>263</ele>
        <time>2022-04-11T15:24:18Z</time>
      </trkpt>
      <trkpt lat="44.15759" lon="4.41515">
        <ele>265</ele>
        <time>2022-04-11T15:24:22Z</time>
      </trkpt>
      <trkpt lat="44.15759" lon="4.41495">
        <ele>266</ele>
        <time>2022-04-11T15:24:25Z</time>
      </trkpt>
      <trkpt lat="44.15745" lon="4.41396">
        <ele>267</ele>
        <time>2022-04-11T15:24:38Z</time>
      </trkpt>
      <trkpt lat="44.15746" lon="4.41379">
        <ele>267</ele>
        <time>2022-04-11T15:24:40Z</time>
      </trkpt>
      <trkpt lat="44.1575" lon="4.41366">
        <ele>267</ele>
        <time>2022-04-11T15:24:42Z</time>
      </trkpt>
      <trkpt lat="44.15808" lon="4.41307">
        <ele>269</ele>
        <time>2022-04-11T15:24:54Z</time>
      </trkpt>
      <trkpt lat="44.15816" lon="4.41295">
        <ele>269</ele>
        <time>2022-04-11T15:24:56Z</time>
      </trkpt>
      <trkpt lat="44.15823" lon="4.41268">
        <ele>269</ele>
        <time>2022-04-11T15:25:00Z</time>
      </trkpt>
      <trkpt lat="44.15804" lon="4.4112">
        <ele>273</ele>
        <time>2022-04-11T15:25:19Z</time>
      </trkpt>
      <trkpt lat="44.15774" lon="4.40999">
        <ele>275</ele>
        <time>2022-04-11T15:25:36Z</time>
      </trkpt>
      <trkpt lat="44.15773" lon="4.40985">
        <ele>275</ele>
        <time>2022-04-11T15:25:37Z</time>
      </trkpt>
      <trkpt lat="44.15775" lon="4.40973">
        <ele>275</ele>
        <time>2022-04-11T15:25:39Z</time>
      </trkpt>
      <trkpt lat="44.15781" lon="4.40962">
        <ele>275</ele>
        <time>2022-04-11T15:25:41Z</time>
      </trkpt>
      <trkpt lat="44.1579" lon="4.40953">
        <ele>275</ele>
        <time>2022-04-11T15:25:43Z</time>
      </trkpt>
      <trkpt lat="44.15875" lon="4.40882">
        <ele>276</ele>
        <time>2022-04-11T15:26:00Z</time>
      </trkpt>
      <trkpt lat="44.15888" lon="4.40868">
        <ele>276</ele>
        <time>2022-04-11T15:26:03Z</time>
      </trkpt>
      <trkpt lat="44.15898" lon="4.40852">
        <ele>277</ele>
        <time>2022-04-11T15:26:06Z</time>
      </trkpt>
      <trkpt lat="44.15905" lon="4.40835">
        <ele>277</ele>
        <time>2022-04-11T15:26:09Z</time>
      </trkpt>
      <trkpt lat="44.1592" lon="4.40773">
        <ele>276</ele>
        <time>2022-04-11T15:26:17Z</time>
      </trkpt>
      <trkpt lat="44.15921" lon="4.40738">
        <ele>276</ele>
        <time>2022-04-11T15:26:21Z</time>
      </trkpt>
      <trkpt lat="44.15892" lon="4.40564">
        <ele>277</ele>
        <time>2022-04-11T15:26:44Z</time>
      </trkpt>
      <trkpt lat="44.15891" lon="4.40543">
        <ele>278</ele>
        <time>2022-04-11T15:26:47Z</time>
      </trkpt>
      <trkpt lat="44.15893" lon="4.40523">
        <ele>279</ele>
        <time>2022-04-11T15:26:49Z</time>
      </trkpt>
      <trkpt lat="44.15971" lon="4.4029">
        <ele>278</ele>
        <time>2022-04-11T15:27:22Z</time>
      </trkpt>
      <trkpt lat="44.15974" lon="4.40273">
        <ele>278</ele>
        <time>2022-04-11T15:27:24Z</time>
      </trkpt>
      <trkpt lat="44.15973" lon="4.40258">
        <ele>277</ele>
        <time>2022-04-11T15:27:26Z</time>
      </trkpt>
      <trkpt lat="44.15915" lon="4.39979">
        <ele>278</ele>
        <time>2022-04-11T15:28:03Z</time>
      </trkpt>
      <trkpt lat="44.15875" lon="4.39859">
        <ele>280</ele>
        <time>2022-04-11T15:28:20Z</time>
      </trkpt>
      <trkpt lat="44.15869" lon="4.39823">
        <ele>280</ele>
        <time>2022-04-11T15:28:25Z</time>
      </trkpt>
      <trkpt lat="44.1587" lon="4.39788">
        <ele>279</ele>
        <time>2022-04-11T15:28:30Z</time>
      </trkpt>
      <trkpt lat="44.15878" lon="4.39701">
        <ele>278</ele>
        <time>2022-04-11T15:28:41Z</time>
      </trkpt>
      <trkpt lat="44.15886" lon="4.39648">
        <ele>278</ele>
        <time>2022-04-11T15:28:48Z</time>
      </trkpt>
      <trkpt lat="44.15957" lon="4.39382">
        <ele>279</ele>
        <time>2022-04-11T15:29:24Z</time>
      </trkpt>
      <trkpt lat="44.15989" lon="4.39299">
        <ele>278</ele>
        <time>2022-04-11T15:29:36Z</time>
      </trkpt>
      <trkpt lat="44.15991" lon="4.39242">
        <ele>278</ele>
        <time>2022-04-11T15:29:43Z</time>
      </trkpt>
      <trkpt lat="44.15976" lon="4.38861">
        <ele>284</ele>
        <time>2022-04-11T15:30:32Z</time>
      </trkpt>
      <trkpt lat="44.15966" lon="4.38813">
        <ele>283</ele>
        <time>2022-04-11T15:30:38Z</time>
      </trkpt>
      <trkpt lat="44.15885" lon="4.38561">
        <ele>285</ele>
        <time>2022-04-11T15:31:14Z</time>
      </trkpt>
      <trkpt lat="44.15879" lon="4.38534">
        <ele>285</ele>
        <time>2022-04-11T15:31:17Z</time>
      </trkpt>
      <trkpt lat="44.15874" lon="4.3849">
        <ele>285</ele>
        <time>2022-04-11T15:31:23Z</time>
      </trkpt>
      <trkpt lat="44.15876" lon="4.38426">
        <ele>286</ele>
        <time>2022-04-11T15:31:31Z</time>
      </trkpt>
      <trkpt lat="44.15883" lon="4.38364">
        <ele>287</ele>
        <time>2022-04-11T15:31:39Z</time>
      </trkpt>
      <trkpt lat="44.15897" lon="4.38286">
        <ele>287</ele>
        <time>2022-04-11T15:31:49Z</time>
      </trkpt>
      <trkpt lat="44.15914" lon="4.38236">
        <ele>287</ele>
        <time>2022-04-11T15:31:56Z</time>
      </trkpt>
      <trkpt lat="44.15946" lon="4.38188">
        <ele>288</ele>
        <time>2022-04-11T15:32:05Z</time>
      </trkpt>
      <trkpt lat="44.15984" lon="4.38141">
        <ele>289</ele>
        <time>2022-04-11T15:32:14Z</time>
      </trkpt>
      <trkpt lat="44.15993" lon="4.38134">
        <ele>289</ele>
        <time>2022-04-11T15:32:16Z</time>
      </trkpt>
      <trkpt lat="44.16014" lon="4.38129">
        <ele>287</ele>
        <time>2022-04-11T15:32:19Z</time>
      </trkpt>
      <trkpt lat="44.16036" lon="4.38129">
        <ele>285</ele>
        <time>2022-04-11T15:32:23Z</time>
      </trkpt>
      <trkpt lat="44.16049" lon="4.38116">
        <ele>283</ele>
        <time>2022-04-11T15:32:26Z</time>
      </trkpt>
      <trkpt lat="44.16052" lon="4.38105">
        <ele>282</ele>
        <time>2022-04-11T15:32:28Z</time>
      </trkpt>
      <trkpt lat="44.16051" lon="4.38069">
        <ele>280</ele>
        <time>2022-04-11T15:32:32Z</time>
      </trkpt>
      <trkpt lat="44.16053" lon="4.38045">
        <ele>278</ele>
        <time>2022-04-11T15:32:35Z</time>
      </trkpt>
      <trkpt lat="44.16058" lon="4.38025">
        <ele>277</ele>
        <time>2022-04-11T15:32:38Z</time>
      </trkpt>
      <trkpt lat="44.16067" lon="4.38003">
        <ele>274</ele>
        <time>2022-04-11T15:32:41Z</time>
      </trkpt>
      <trkpt lat="44.16069" lon="4.37978">
        <ele>270</ele>
        <time>2022-04-11T15:32:44Z</time>
      </trkpt>
      <trkpt lat="44.16066" lon="4.37968">
        <ele>269</ele>
        <time>2022-04-11T15:32:46Z</time>
      </trkpt>
      <trkpt lat="44.16059" lon="4.3796">
        <ele>269</ele>
        <time>2022-04-11T15:32:47Z</time>
      </trkpt>
      <trkpt lat="44.16043" lon="4.37943">
        <ele>269</ele>
        <time>2022-04-11T15:32:51Z</time>
      </trkpt>
      <trkpt lat="44.16026" lon="4.3793">
        <ele>269</ele>
        <time>2022-04-11T15:32:55Z</time>
      </trkpt>
      <trkpt lat="44.15925" lon="4.37889">
        <ele>270</ele>
        <time>2022-04-11T15:33:13Z</time>
      </trkpt>
      <trkpt lat="44.15914" lon="4.37878">
        <ele>269</ele>
        <time>2022-04-11T15:33:16Z</time>
      </trkpt>
      <trkpt lat="44.15894" lon="4.37845">
        <ele>263</ele>
        <time>2022-04-11T15:33:21Z</time>
      </trkpt>
      <trkpt lat="44.15882" lon="4.37838">
        <ele>263</ele>
        <time>2022-04-11T15:33:23Z</time>
      </trkpt>
      <trkpt lat="44.15763" lon="4.37788">
        <ele>260</ele>
        <time>2022-04-11T15:33:46Z</time>
      </trkpt>
      <trkpt lat="44.15741" lon="4.37782">
        <ele>259</ele>
        <time>2022-04-11T15:33:50Z</time>
      </trkpt>
      <trkpt lat="44.15666" lon="4.37775">
        <ele>257</ele>
        <time>2022-04-11T15:34:03Z</time>
      </trkpt>
      <trkpt lat="44.15639" lon="4.37768">
        <ele>257</ele>
        <time>2022-04-11T15:34:08Z</time>
      </trkpt>
      <trkpt lat="44.15615" lon="4.37753">
        <ele>255</ele>
        <time>2022-04-11T15:34:13Z</time>
      </trkpt>
      <trkpt lat="44.15603" lon="4.37742">
        <ele>255</ele>
        <time>2022-04-11T15:34:15Z</time>
      </trkpt>
      <trkpt lat="44.15596" lon="4.37731">
        <ele>254</ele>
        <time>2022-04-11T15:34:17Z</time>
      </trkpt>
      <trkpt lat="44.15579" lon="4.37684">
        <ele>249</ele>
        <time>2022-04-11T15:34:24Z</time>
      </trkpt>
      <trkpt lat="44.15571" lon="4.37672">
        <ele>247</ele>
        <time>2022-04-11T15:34:26Z</time>
      </trkpt>
      <trkpt lat="44.15563" lon="4.37664">
        <ele>247</ele>
        <time>2022-04-11T15:34:27Z</time>
      </trkpt>
      <trkpt lat="44.1554" lon="4.37652">
        <ele>247</ele>
        <time>2022-04-11T15:34:32Z</time>
      </trkpt>
      <trkpt lat="44.15526" lon="4.37638">
        <ele>247</ele>
        <time>2022-04-11T15:34:35Z</time>
      </trkpt>
      <trkpt lat="44.15518" lon="4.37615">
        <ele>245</ele>
        <time>2022-04-11T15:34:38Z</time>
      </trkpt>
      <trkpt lat="44.15474" lon="4.37427">
        <ele>239</ele>
        <time>2022-04-11T15:35:03Z</time>
      </trkpt>
      <trkpt lat="44.15326" lon="4.3718">
        <ele>241</ele>
        <time>2022-04-11T15:35:45Z</time>
      </trkpt>
      <trkpt lat="44.15297" lon="4.37109">
        <ele>243</ele>
        <time>2022-04-11T15:35:55Z</time>
      </trkpt>
      <trkpt lat="44.15288" lon="4.3707">
        <ele>245</ele>
        <time>2022-04-11T15:36:00Z</time>
      </trkpt>
      <trkpt lat="44.15281" lon="4.37054">
        <ele>246</ele>
        <time>2022-04-11T15:36:03Z</time>
      </trkpt>
      <trkpt lat="44.15273" lon="4.37046">
        <ele>247</ele>
        <time>2022-04-11T15:36:04Z</time>
      </trkpt>
      <trkpt lat="44.15198" lon="4.37021">
        <ele>250</ele>
        <time>2022-04-11T15:36:18Z</time>
      </trkpt>
      <trkpt lat="44.15147" lon="4.37">
        <ele>250</ele>
        <time>2022-04-11T15:36:28Z</time>
      </trkpt>
      <trkpt lat="44.15092" lon="4.3693">
        <ele>249</ele>
        <time>2022-04-11T15:36:41Z</time>
      </trkpt>
      <trkpt lat="44.15012" lon="4.36869">
        <ele>250</ele>
        <time>2022-04-11T15:36:57Z</time>
      </trkpt>
      <trkpt lat="44.15076" lon="4.36272">
        <ele>250</ele>
        <time>2022-04-11T15:38:14Z</time>
      </trkpt>
      <trkpt lat="44.15079" lon="4.36262">
        <ele>250</ele>
        <time>2022-04-11T15:38:15Z</time>
      </trkpt>
      <trkpt lat="44.15176" lon="4.36156">
        <ele>243</ele>
        <time>2022-04-11T15:38:37Z</time>
      </trkpt>
      <trkpt lat="44.1522" lon="4.36114">
        <ele>242</ele>
        <time>2022-04-11T15:38:47Z</time>
      </trkpt>
      <trkpt lat="44.15574" lon="4.35876">
        <ele>253</ele>
        <time>2022-04-11T15:39:57Z</time>
      </trkpt>
      <trkpt lat="44.15598" lon="4.35863">
        <ele>255</ele>
        <time>2022-04-11T15:40:01Z</time>
      </trkpt>
      <trkpt lat="44.15613" lon="4.3586">
        <ele>255</ele>
        <time>2022-04-11T15:40:04Z</time>
      </trkpt>
      <trkpt lat="44.15627" lon="4.35866">
        <ele>254</ele>
        <time>2022-04-11T15:40:07Z</time>
      </trkpt>
      <trkpt lat="44.15663" lon="4.35893">
        <ele>251</ele>
        <time>2022-04-11T15:40:14Z</time>
      </trkpt>
      <trkpt lat="44.15681" lon="4.35899">
        <ele>250</ele>
        <time>2022-04-11T15:40:17Z</time>
      </trkpt>
      <trkpt lat="44.157" lon="4.35901">
        <ele>249</ele>
        <time>2022-04-11T15:40:21Z</time>
      </trkpt>
      <trkpt lat="44.15785" lon="4.35894">
        <ele>249</ele>
        <time>2022-04-11T15:40:36Z</time>
      </trkpt>
      <trkpt lat="44.15807" lon="4.35896">
        <ele>250</ele>
        <time>2022-04-11T15:40:40Z</time>
      </trkpt>
      <trkpt lat="44.15848" lon="4.35908">
        <ele>250</ele>
        <time>2022-04-11T15:40:47Z</time>
      </trkpt>
      <trkpt lat="44.16021" lon="4.35984">
        <ele>244</ele>
        <time>2022-04-11T15:41:19Z</time>
      </trkpt>
      <trkpt lat="44.16023" lon="4.35969">
        <ele>245</ele>
        <time>2022-04-11T15:41:21Z</time>
      </trkpt>
      <trkpt lat="44.1602" lon="4.35956">
        <ele>245</ele>
        <time>2022-04-11T15:41:23Z</time>
      </trkpt>
      <trkpt lat="44.16015" lon="4.35949">
        <ele>246</ele>
        <time>2022-04-11T15:41:24Z</time>
      </trkpt>
      <trkpt lat="44.16" lon="4.35939">
        <ele>247</ele>
        <time>2022-04-11T15:41:27Z</time>
      </trkpt>
      <trkpt lat="44.15953" lon="4.35925">
        <ele>250</ele>
        <time>2022-04-11T15:41:36Z</time>
      </trkpt>
      <trkpt lat="44.15622" lon="4.35787">
        <ele>263</ele>
        <time>2022-04-11T15:42:37Z</time>
      </trkpt>
      <trkpt lat="44.15573" lon="4.35764">
        <ele>266</ele>
        <time>2022-04-11T15:42:47Z</time>
      </trkpt>
      <trkpt lat="44.15552" lon="4.35751">
        <ele>266</ele>
        <time>2022-04-11T15:42:51Z</time>
      </trkpt>
      <trkpt lat="44.1551" lon="4.35708">
        <ele>268</ele>
        <time>2022-04-11T15:43:00Z</time>
      </trkpt>
      <trkpt lat="44.15491" lon="4.35679">
        <ele>270</ele>
        <time>2022-04-11T15:43:05Z</time>
      </trkpt>
      <trkpt lat="44.15483" lon="4.35644">
        <ele>270</ele>
        <time>2022-04-11T15:43:10Z</time>
      </trkpt>
      <trkpt lat="44.15484" lon="4.35614">
        <ele>271</ele>
        <time>2022-04-11T15:43:13Z</time>
      </trkpt>
      <trkpt lat="44.15491" lon="4.35583">
        <ele>271</ele>
        <time>2022-04-11T15:43:18Z</time>
      </trkpt>
      <trkpt lat="44.15507" lon="4.35561">
        <ele>270</ele>
        <time>2022-04-11T15:43:22Z</time>
      </trkpt>
      <trkpt lat="44.15541" lon="4.35541">
        <ele>271</ele>
        <time>2022-04-11T15:43:28Z</time>
      </trkpt>
      <trkpt lat="44.15722" lon="4.35473">
        <ele>284</ele>
        <time>2022-04-11T15:44:02Z</time>
      </trkpt>
      <trkpt lat="44.15755" lon="4.35449">
        <ele>285</ele>
        <time>2022-04-11T15:44:08Z</time>
      </trkpt>
      <trkpt lat="44.15776" lon="4.35431">
        <ele>286</ele>
        <time>2022-04-11T15:44:13Z</time>
      </trkpt>
      <trkpt lat="44.15842" lon="4.35341">
        <ele>290</ele>
        <time>2022-04-11T15:44:29Z</time>
      </trkpt>
      <trkpt lat="44.15855" lon="4.35329">
        <ele>289</ele>
        <time>2022-04-11T15:44:32Z</time>
      </trkpt>
      <trkpt lat="44.15869" lon="4.35324">
        <ele>290</ele>
        <time>2022-04-11T15:44:34Z</time>
      </trkpt>
      <trkpt lat="44.15892" lon="4.35323">
        <ele>292</ele>
        <time>2022-04-11T15:44:38Z</time>
      </trkpt>
      <trkpt lat="44.15935" lon="4.35326">
        <ele>297</ele>
        <time>2022-04-11T15:44:46Z</time>
      </trkpt>
      <trkpt lat="44.15958" lon="4.35312">
        <ele>298</ele>
        <time>2022-04-11T15:44:51Z</time>
      </trkpt>
      <trkpt lat="44.15967" lon="4.35303">
        <ele>298</ele>
        <time>2022-04-11T15:44:53Z</time>
      </trkpt>
      <trkpt lat="44.16007" lon="4.35245">
        <ele>299</ele>
        <time>2022-04-11T15:45:03Z</time>
      </trkpt>
      <trkpt lat="44.16015" lon="4.35231">
        <ele>299</ele>
        <time>2022-04-11T15:45:05Z</time>
      </trkpt>
      <trkpt lat="44.16042" lon="4.35167">
        <ele>299</ele>
        <time>2022-04-11T15:45:15Z</time>
      </trkpt>
      <trkpt lat="44.16149" lon="4.34868">
        <ele>297</ele>
        <time>2022-04-11T15:45:57Z</time>
      </trkpt>
      <trkpt lat="44.16186" lon="4.34743">
        <ele>294</ele>
        <time>2022-04-11T15:46:14Z</time>
      </trkpt>
      <trkpt lat="44.16207" lon="4.34512">
        <ele>299</ele>
        <time>2022-04-11T15:46:44Z</time>
      </trkpt>
      <trkpt lat="44.16221" lon="4.34394">
        <ele>300</ele>
        <time>2022-04-11T15:46:59Z</time>
      </trkpt>
      <trkpt lat="44.16228" lon="4.34272">
        <ele>300</ele>
        <time>2022-04-11T15:47:15Z</time>
      </trkpt>
      <trkpt lat="44.16236" lon="4.34194">
        <ele>298</ele>
        <time>2022-04-11T15:47:25Z</time>
      </trkpt>
      <trkpt lat="44.16276" lon="4.33897">
        <ele>302</ele>
        <time>2022-04-11T15:48:04Z</time>
      </trkpt>
      <trkpt lat="44.16326" lon="4.33472">
        <ele>317</ele>
        <time>2022-04-11T15:48:59Z</time>
      </trkpt>
      <trkpt lat="44.16341" lon="4.33392">
        <ele>318</ele>
        <time>2022-04-11T15:49:09Z</time>
      </trkpt>
      <trkpt lat="44.16359" lon="4.33331">
        <ele>316</ele>
        <time>2022-04-11T15:49:18Z</time>
      </trkpt>
      <trkpt lat="44.16394" lon="4.33257">
        <ele>316</ele>
        <time>2022-04-11T15:49:29Z</time>
      </trkpt>
      <trkpt lat="44.16653" lon="4.32871">
        <ele>328</ele>
        <time>2022-04-11T15:50:36Z</time>
      </trkpt>
      <trkpt lat="44.16691" lon="4.32805">
        <ele>329</ele>
        <time>2022-04-11T15:50:47Z</time>
      </trkpt>
      <trkpt lat="44.16709" lon="4.32764">
        <ele>331</ele>
        <time>2022-04-11T15:50:53Z</time>
      </trkpt>
      <trkpt lat="44.16759" lon="4.32634">
        <ele>337</ele>
        <time>2022-04-11T15:51:12Z</time>
      </trkpt>
      <trkpt lat="44.16845" lon="4.32305">
        <ele>344</ele>
        <time>2022-04-11T15:51:57Z</time>
      </trkpt>
      <trkpt lat="44.16841" lon="4.323">
        <ele>345</ele>
        <time>2022-04-11T15:51:58Z</time>
      </trkpt>
      <trkpt lat="44.16759" lon="4.3177">
        <ele>345</ele>
        <time>2022-04-11T15:53:07Z</time>
      </trkpt>
      <trkpt lat="44.1675" lon="4.31746">
        <ele>345</ele>
        <time>2022-04-11T15:53:10Z</time>
      </trkpt>
      <trkpt lat="44.16734" lon="4.31726">
        <ele>345</ele>
        <time>2022-04-11T15:53:14Z</time>
      </trkpt>
      <trkpt lat="44.16691" lon="4.31693">
        <ele>345</ele>
        <time>2022-04-11T15:53:23Z</time>
      </trkpt>
      <trkpt lat="44.16669" lon="4.31679">
        <ele>345</ele>
        <time>2022-04-11T15:53:27Z</time>
      </trkpt>
      <trkpt lat="44.16541" lon="4.31618">
        <ele>345</ele>
        <time>2022-04-11T15:53:51Z</time>
      </trkpt>
      <trkpt lat="44.165" lon="4.31595">
        <ele>345</ele>
        <time>2022-04-11T15:53:59Z</time>
      </trkpt>
      <trkpt lat="44.16442" lon="4.31541">
        <ele>345</ele>
        <time>2022-04-11T15:54:12Z</time>
      </trkpt>
      <trkpt lat="44.16422" lon="4.31517">
        <ele>345</ele>
        <time>2022-04-11T15:54:16Z</time>
      </trkpt>
      <trkpt lat="44.16416" lon="4.31506">
        <ele>344</ele>
        <time>2022-04-11T15:54:18Z</time>
      </trkpt>
      <trkpt lat="44.16411" lon="4.3148">
        <ele>344</ele>
        <time>2022-04-11T15:54:22Z</time>
      </trkpt>
      <trkpt lat="44.16401" lon="4.3133">
        <ele>337</ele>
        <time>2022-04-11T15:54:41Z</time>
      </trkpt>
      <trkpt lat="44.16394" lon="4.31306">
        <ele>335</ele>
        <time>2022-04-11T15:54:44Z</time>
      </trkpt>
      <trkpt lat="44.16345" lon="4.31239">
        <ele>331</ele>
        <time>2022-04-11T15:54:56Z</time>
      </trkpt>
      <trkpt lat="44.16331" lon="4.3121">
        <ele>331</ele>
        <time>2022-04-11T15:55:01Z</time>
      </trkpt>
      <trkpt lat="44.16327" lon="4.31184">
        <ele>330</ele>
        <time>2022-04-11T15:55:04Z</time>
      </trkpt>
      <trkpt lat="44.16315" lon="4.3098">
        <ele>321</ele>
        <time>2022-04-11T15:55:30Z</time>
      </trkpt>
      <trkpt lat="44.16315" lon="4.30945">
        <ele>321</ele>
        <time>2022-04-11T15:55:35Z</time>
      </trkpt>
      <trkpt lat="44.16319" lon="4.30915">
        <ele>321</ele>
        <time>2022-04-11T15:55:39Z</time>
      </trkpt>
      <trkpt lat="44.1637" lon="4.30738">
        <ele>313</ele>
        <time>2022-04-11T15:56:03Z</time>
      </trkpt>
      <trkpt lat="44.1648" lon="4.30465">
        <ele>302</ele>
        <time>2022-04-11T15:56:43Z</time>
      </trkpt>
      <trkpt lat="44.16495" lon="4.30438">
        <ele>302</ele>
        <time>2022-04-11T15:56:47Z</time>
      </trkpt>
      <trkpt lat="44.16646" lon="4.3025">
        <ele>296</ele>
        <time>2022-04-11T15:57:23Z</time>
      </trkpt>
      <trkpt lat="44.16654" lon="4.30237">
        <ele>296</ele>
        <time>2022-04-11T15:57:26Z</time>
      </trkpt>
      <trkpt lat="44.16665" lon="4.3021">
        <ele>294</ele>
        <time>2022-04-11T15:57:29Z</time>
      </trkpt>
      <trkpt lat="44.16668" lon="4.30196">
        <ele>294</ele>
        <time>2022-04-11T15:57:31Z</time>
      </trkpt>
      <trkpt lat="44.16669" lon="4.30171">
        <ele>293</ele>
        <time>2022-04-11T15:57:35Z</time>
      </trkpt>
      <trkpt lat="44.16667" lon="4.30157">
        <ele>292</ele>
        <time>2022-04-11T15:57:36Z</time>
      </trkpt>
      <trkpt lat="44.16646" lon="4.30102">
        <ele>290</ele>
        <time>2022-04-11T15:57:44Z</time>
      </trkpt>
      <trkpt lat="44.16625" lon="4.30058">
        <ele>289</ele>
        <time>2022-04-11T15:57:51Z</time>
      </trkpt>
      <trkpt lat="44.16476" lon="4.2985">
        <ele>280</ele>
        <time>2022-04-11T15:58:29Z</time>
      </trkpt>
      <trkpt lat="44.16464" lon="4.29829">
        <ele>279</ele>
        <time>2022-04-11T15:58:32Z</time>
      </trkpt>
      <trkpt lat="44.16453" lon="4.29796">
        <ele>278</ele>
        <time>2022-04-11T15:58:37Z</time>
      </trkpt>
      <trkpt lat="44.16454" lon="4.29773">
        <ele>277</ele>
        <time>2022-04-11T15:58:40Z</time>
      </trkpt>
      <trkpt lat="44.16471" lon="4.29728">
        <ele>277</ele>
        <time>2022-04-11T15:58:46Z</time>
      </trkpt>
      <trkpt lat="44.16474" lon="4.29699">
        <ele>277</ele>
        <time>2022-04-11T15:58:50Z</time>
      </trkpt>
      <trkpt lat="44.16474" lon="4.29651">
        <ele>277</ele>
        <time>2022-04-11T15:58:56Z</time>
      </trkpt>
      <trkpt lat="44.16477" lon="4.29634">
        <ele>277</ele>
        <time>2022-04-11T15:58:58Z</time>
      </trkpt>
      <trkpt lat="44.16553" lon="4.29351">
        <ele>274</ele>
        <time>2022-04-11T15:59:37Z</time>
      </trkpt>
      <trkpt lat="44.16612" lon="4.29231">
        <ele>276</ele>
        <time>2022-04-11T15:59:55Z</time>
      </trkpt>
      <trkpt lat="44.16617" lon="4.29215">
        <ele>276</ele>
        <time>2022-04-11T15:59:58Z</time>
      </trkpt>
      <trkpt lat="44.16633" lon="4.29127">
        <ele>275</ele>
        <time>2022-04-11T16:00:09Z</time>
      </trkpt>
      <trkpt lat="44.16652" lon="4.29067">
        <ele>274</ele>
        <time>2022-04-11T16:00:18Z</time>
      </trkpt>
      <trkpt lat="44.16688" lon="4.28968">
        <ele>274</ele>
        <time>2022-04-11T16:00:32Z</time>
      </trkpt>
      <trkpt lat="44.16747" lon="4.2882">
        <ele>273</ele>
        <time>2022-04-11T16:00:53Z</time>
      </trkpt>
      <trkpt lat="44.1676" lon="4.2878">
        <ele>272</ele>
        <time>2022-04-11T16:00:59Z</time>
      </trkpt>
      <trkpt lat="44.16765" lon="4.28742">
        <ele>271</ele>
        <time>2022-04-11T16:01:04Z</time>
      </trkpt>
      <trkpt lat="44.16766" lon="4.28173">
        <ele>260</ele>
        <time>2022-04-11T16:02:16Z</time>
      </trkpt>
      <trkpt lat="44.16761" lon="4.28107">
        <ele>260</ele>
        <time>2022-04-11T16:02:25Z</time>
      </trkpt>
      <trkpt lat="44.16739" lon="4.27965">
        <ele>259</ele>
        <time>2022-04-11T16:02:43Z</time>
      </trkpt>
      <trkpt lat="44.16741" lon="4.27713">
        <ele>252</ele>
        <time>2022-04-11T16:03:16Z</time>
      </trkpt>
      <trkpt lat="44.16764" lon="4.27635">
        <ele>250</ele>
        <time>2022-04-11T16:03:26Z</time>
      </trkpt>
      <trkpt lat="44.16778" lon="4.27556">
        <ele>248</ele>
        <time>2022-04-11T16:03:37Z</time>
      </trkpt>
      <trkpt lat="44.16789" lon="4.27518">
        <ele>248</ele>
        <time>2022-04-11T16:03:42Z</time>
      </trkpt>
      <trkpt lat="44.16843" lon="4.27381">
        <ele>246</ele>
        <time>2022-04-11T16:04:02Z</time>
      </trkpt>
      <trkpt lat="44.16853" lon="4.27302">
        <ele>244</ele>
        <time>2022-04-11T16:04:12Z</time>
      </trkpt>
      <trkpt lat="44.16853" lon="4.27283">
        <ele>243</ele>
        <time>2022-04-11T16:04:15Z</time>
      </trkpt>
      <trkpt lat="44.16831" lon="4.27217">
        <ele>243</ele>
        <time>2022-04-11T16:04:24Z</time>
      </trkpt>
      <trkpt lat="44.16832" lon="4.27192">
        <ele>243</ele>
        <time>2022-04-11T16:04:27Z</time>
      </trkpt>
      <trkpt lat="44.16891" lon="4.27001">
        <ele>246</ele>
        <time>2022-04-11T16:04:54Z</time>
      </trkpt>
      <trkpt lat="44.1691" lon="4.26927">
        <ele>245</ele>
        <time>2022-04-11T16:05:04Z</time>
      </trkpt>
      <trkpt lat="44.16912" lon="4.26912">
        <ele>245</ele>
        <time>2022-04-11T16:05:06Z</time>
      </trkpt>
      <trkpt lat="44.1691" lon="4.26897">
        <ele>245</ele>
        <time>2022-04-11T16:05:08Z</time>
      </trkpt>
      <trkpt lat="44.16894" lon="4.26861">
        <ele>248</ele>
        <time>2022-04-11T16:05:13Z</time>
      </trkpt>
      <trkpt lat="44.16894" lon="4.26835">
        <ele>248</ele>
        <time>2022-04-11T16:05:16Z</time>
      </trkpt>
      <trkpt lat="44.16903" lon="4.26819">
        <ele>249</ele>
        <time>2022-04-11T16:05:19Z</time>
      </trkpt>
      <trkpt lat="44.16912" lon="4.26813">
        <ele>248</ele>
        <time>2022-04-11T16:05:21Z</time>
      </trkpt>
      <trkpt lat="44.16942" lon="4.26804">
        <ele>247</ele>
        <time>2022-04-11T16:05:26Z</time>
      </trkpt>
      <trkpt lat="44.16949" lon="4.26798">
        <ele>247</ele>
        <time>2022-04-11T16:05:28Z</time>
      </trkpt>
      <trkpt lat="44.16997" lon="4.2673">
        <ele>249</ele>
        <time>2022-04-11T16:05:40Z</time>
      </trkpt>
      <trkpt lat="44.17072" lon="4.26644">
        <ele>247</ele>
        <time>2022-04-11T16:05:57Z</time>
      </trkpt>
      <trkpt lat="44.17081" lon="4.2663">
        <ele>247</ele>
        <time>2022-04-11T16:05:59Z</time>
      </trkpt>
      <trkpt lat="44.17086" lon="4.26606">
        <ele>248</ele>
        <time>2022-04-11T16:06:03Z</time>
      </trkpt>
      <trkpt lat="44.17077" lon="4.26571">
        <ele>250</ele>
        <time>2022-04-11T16:06:07Z</time>
      </trkpt>
      <trkpt lat="44.17043" lon="4.2649">
        <ele>253</ele>
        <time>2022-04-11T16:06:19Z</time>
      </trkpt>
      <trkpt lat="44.1703" lon="4.26452">
        <ele>255</ele>
        <time>2022-04-11T16:06:25Z</time>
      </trkpt>
      <trkpt lat="44.17017" lon="4.26402">
        <ele>257</ele>
        <time>2022-04-11T16:06:32Z</time>
      </trkpt>
      <trkpt lat="44.16996" lon="4.26295">
        <ele>258</ele>
        <time>2022-04-11T16:06:46Z</time>
      </trkpt>
      <trkpt lat="44.16954" lon="4.26155">
        <ele>262</ele>
        <time>2022-04-11T16:07:05Z</time>
      </trkpt>
      <trkpt lat="44.16936" lon="4.26045">
        <ele>262</ele>
        <time>2022-04-11T16:07:19Z</time>
      </trkpt>
      <trkpt lat="44.16936" lon="4.26026">
        <ele>262</ele>
        <time>2022-04-11T16:07:22Z</time>
      </trkpt>
      <trkpt lat="44.16941" lon="4.26">
        <ele>262</ele>
        <time>2022-04-11T16:07:25Z</time>
      </trkpt>
      <trkpt lat="44.1695" lon="4.25971">
        <ele>265</ele>
        <time>2022-04-11T16:07:29Z</time>
      </trkpt>
      <trkpt lat="44.1695" lon="4.25946">
        <ele>267</ele>
        <time>2022-04-11T16:07:33Z</time>
      </trkpt>
      <trkpt lat="44.16914" lon="4.25827">
        <ele>266</ele>
        <time>2022-04-11T16:07:49Z</time>
      </trkpt>
      <trkpt lat="44.16907" lon="4.25815">
        <ele>265</ele>
        <time>2022-04-11T16:07:51Z</time>
      </trkpt>
      <trkpt lat="44.16897" lon="4.25807">
        <ele>265</ele>
        <time>2022-04-11T16:07:53Z</time>
      </trkpt>
      <trkpt lat="44.1686" lon="4.25792">
        <ele>264</ele>
        <time>2022-04-11T16:08:00Z</time>
      </trkpt>
      <trkpt lat="44.16851" lon="4.25785">
        <ele>263</ele>
        <time>2022-04-11T16:08:02Z</time>
      </trkpt>
      <trkpt lat="44.16845" lon="4.25776">
        <ele>263</ele>
        <time>2022-04-11T16:08:03Z</time>
      </trkpt>
      <trkpt lat="44.16839" lon="4.25758">
        <ele>262</ele>
        <time>2022-04-11T16:08:06Z</time>
      </trkpt>
      <trkpt lat="44.16837" lon="4.25742">
        <ele>262</ele>
        <time>2022-04-11T16:08:08Z</time>
      </trkpt>
      <trkpt lat="44.16839" lon="4.25728">
        <ele>261</ele>
        <time>2022-04-11T16:08:10Z</time>
      </trkpt>
      <trkpt lat="44.16887" lon="4.25602">
        <ele>251</ele>
        <time>2022-04-11T16:08:28Z</time>
      </trkpt>
      <trkpt lat="44.1689" lon="4.25588">
        <ele>250</ele>
        <time>2022-04-11T16:08:30Z</time>
      </trkpt>
      <trkpt lat="44.16884" lon="4.25532">
        <ele>248</ele>
        <time>2022-04-11T16:08:37Z</time>
      </trkpt>
      <trkpt lat="44.16876" lon="4.25508">
        <ele>246</ele>
        <time>2022-04-11T16:08:40Z</time>
      </trkpt>
      <trkpt lat="44.16853" lon="4.25467">
        <ele>244</ele>
        <time>2022-04-11T16:08:47Z</time>
      </trkpt>
      <trkpt lat="44.16831" lon="4.2544">
        <ele>242</ele>
        <time>2022-04-11T16:08:52Z</time>
      </trkpt>
      <trkpt lat="44.16773" lon="4.25392">
        <ele>243</ele>
        <time>2022-04-11T16:09:04Z</time>
      </trkpt>
      <trkpt lat="44.16715" lon="4.25336">
        <ele>244</ele>
        <time>2022-04-11T16:09:17Z</time>
      </trkpt>
      <trkpt lat="44.16655" lon="4.25267">
        <ele>243</ele>
        <time>2022-04-11T16:09:31Z</time>
      </trkpt>
      <trkpt lat="44.1662" lon="4.25219">
        <ele>244</ele>
        <time>2022-04-11T16:09:39Z</time>
      </trkpt>
      <trkpt lat="44.16597" lon="4.25177">
        <ele>246</ele>
        <time>2022-04-11T16:09:46Z</time>
      </trkpt>
      <trkpt lat="44.16574" lon="4.25079">
        <ele>254</ele>
        <time>2022-04-11T16:09:59Z</time>
      </trkpt>
      <trkpt lat="44.16559" lon="4.25044">
        <ele>256</ele>
        <time>2022-04-11T16:10:04Z</time>
      </trkpt>
      <trkpt lat="44.16557" lon="4.25016">
        <ele>256</ele>
        <time>2022-04-11T16:10:08Z</time>
      </trkpt>
      <trkpt lat="44.16566" lon="4.24973">
        <ele>255</ele>
        <time>2022-04-11T16:10:14Z</time>
      </trkpt>
      <trkpt lat="44.1657" lon="4.24883">
        <ele>250</ele>
        <time>2022-04-11T16:10:25Z</time>
      </trkpt>
      <trkpt lat="44.16573" lon="4.24693">
        <ele>240</ele>
        <time>2022-04-11T16:10:50Z</time>
      </trkpt>
      <trkpt lat="44.16576" lon="4.24675">
        <ele>239</ele>
        <time>2022-04-11T16:10:52Z</time>
      </trkpt>
      <trkpt lat="44.16582" lon="4.24659">
        <ele>239</ele>
        <time>2022-04-11T16:10:54Z</time>
      </trkpt>
      <trkpt lat="44.16619" lon="4.24586">
        <ele>233</ele>
        <time>2022-04-11T16:11:06Z</time>
      </trkpt>
      <trkpt lat="44.16626" lon="4.24567">
        <ele>231</ele>
        <time>2022-04-11T16:11:08Z</time>
      </trkpt>
      <trkpt lat="44.16628" lon="4.24548">
        <ele>229</ele>
        <time>2022-04-11T16:11:11Z</time>
      </trkpt>
      <trkpt lat="44.16625" lon="4.24527">
        <ele>228</ele>
        <time>2022-04-11T16:11:14Z</time>
      </trkpt>
      <trkpt lat="44.1662" lon="4.24513">
        <ele>227</ele>
        <time>2022-04-11T16:11:16Z</time>
      </trkpt>
      <trkpt lat="44.16612" lon="4.24501">
        <ele>227</ele>
        <time>2022-04-11T16:11:18Z</time>
      </trkpt>
      <trkpt lat="44.16463" lon="4.24366">
        <ele>215</ele>
        <time>2022-04-11T16:11:49Z</time>
      </trkpt>
      <trkpt lat="44.1643" lon="4.24323">
        <ele>212</ele>
        <time>2022-04-11T16:11:57Z</time>
      </trkpt>
      <trkpt lat="44.16421" lon="4.24317">
        <ele>211</ele>
        <time>2022-04-11T16:11:59Z</time>
      </trkpt>
      <trkpt lat="44.16411" lon="4.24315">
        <ele>211</ele>
        <time>2022-04-11T16:12:01Z</time>
      </trkpt>
      <trkpt lat="44.164" lon="4.24319">
        <ele>209</ele>
        <time>2022-04-11T16:12:03Z</time>
      </trkpt>
      <trkpt lat="44.16389" lon="4.24328">
        <ele>209</ele>
        <time>2022-04-11T16:12:05Z</time>
      </trkpt>
      <trkpt lat="44.16382" lon="4.2434">
        <ele>209</ele>
        <time>2022-04-11T16:12:07Z</time>
      </trkpt>
      <trkpt lat="44.16379" lon="4.24354">
        <ele>209</ele>
        <time>2022-04-11T16:12:09Z</time>
      </trkpt>
      <trkpt lat="44.16381" lon="4.24371">
        <ele>210</ele>
        <time>2022-04-11T16:12:11Z</time>
      </trkpt>
      <trkpt lat="44.16388" lon="4.24387">
        <ele>211</ele>
        <time>2022-04-11T16:12:14Z</time>
      </trkpt>
      <trkpt lat="44.1642" lon="4.24444">
        <ele>215</ele>
        <time>2022-04-11T16:12:23Z</time>
      </trkpt>
      <trkpt lat="44.16423" lon="4.24465">
        <ele>215</ele>
        <time>2022-04-11T16:12:26Z</time>
      </trkpt>
      <trkpt lat="44.1642" lon="4.24474">
        <ele>215</ele>
        <time>2022-04-11T16:12:27Z</time>
      </trkpt>
      <trkpt lat="44.1641" lon="4.24484">
        <ele>215</ele>
        <time>2022-04-11T16:12:29Z</time>
      </trkpt>
      <trkpt lat="44.164" lon="4.24484">
        <ele>216</ele>
        <time>2022-04-11T16:12:31Z</time>
      </trkpt>
      <trkpt lat="44.16392" lon="4.24479">
        <ele>216</ele>
        <time>2022-04-11T16:12:32Z</time>
      </trkpt>
      <trkpt lat="44.16331" lon="4.2441">
        <ele>209</ele>
        <time>2022-04-11T16:12:46Z</time>
      </trkpt>
      <trkpt lat="44.16307" lon="4.24371">
        <ele>206</ele>
        <time>2022-04-11T16:12:53Z</time>
      </trkpt>
      <trkpt lat="44.16302" lon="4.24355">
        <ele>205</ele>
        <time>2022-04-11T16:12:55Z</time>
      </trkpt>
      <trkpt lat="44.16278" lon="4.242">
        <ele>194</ele>
        <time>2022-04-11T16:13:15Z</time>
      </trkpt>
      <trkpt lat="44.16273" lon="4.24184">
        <ele>193</ele>
        <time>2022-04-11T16:13:18Z</time>
      </trkpt>
      <trkpt lat="44.16266" lon="4.24178">
        <ele>193</ele>
        <time>2022-04-11T16:13:19Z</time>
      </trkpt>
      <trkpt lat="44.16258" lon="4.24175">
        <ele>192</ele>
        <time>2022-04-11T16:13:21Z</time>
      </trkpt>
      <trkpt lat="44.16246" lon="4.24178">
        <ele>193</ele>
        <time>2022-04-11T16:13:23Z</time>
      </trkpt>
      <trkpt lat="44.1621" lon="4.24197">
        <ele>193</ele>
        <time>2022-04-11T16:13:30Z</time>
      </trkpt>
      <trkpt lat="44.162" lon="4.24196">
        <ele>192</ele>
        <time>2022-04-11T16:13:31Z</time>
      </trkpt>
      <trkpt lat="44.16182" lon="4.24155">
        <ele>189</ele>
        <time>2022-04-11T16:13:37Z</time>
      </trkpt>
      <trkpt lat="44.16177" lon="4.24149">
        <ele>188</ele>
        <time>2022-04-11T16:13:39Z</time>
      </trkpt>
      <trkpt lat="44.1617" lon="4.24147">
        <ele>188</ele>
        <time>2022-04-11T16:13:40Z</time>
      </trkpt>
      <trkpt lat="44.16164" lon="4.24139">
        <ele>187</ele>
        <time>2022-04-11T16:13:41Z</time>
      </trkpt>
      <trkpt lat="44.16143" lon="4.24088">
        <ele>181</ele>
        <time>2022-04-11T16:13:49Z</time>
      </trkpt>
      <trkpt lat="44.16132" lon="4.2405">
        <ele>177</ele>
        <time>2022-04-11T16:13:54Z</time>
      </trkpt>
      <trkpt lat="44.16076" lon="4.24094">
        <ele>177</ele>
        <time>2022-04-11T16:14:06Z</time>
      </trkpt>
      <trkpt lat="44.16023" lon="4.24116">
        <ele>176</ele>
        <time>2022-04-11T16:14:15Z</time>
      </trkpt>
      <trkpt lat="44.16006" lon="4.24126">
        <ele>176</ele>
        <time>2022-04-11T16:14:19Z</time>
      </trkpt>
      <trkpt lat="44.15955" lon="4.24167">
        <ele>179</ele>
        <time>2022-04-11T16:14:29Z</time>
      </trkpt>
      <trkpt lat="44.15864" lon="4.24213">
        <ele>181</ele>
        <time>2022-04-11T16:14:46Z</time>
      </trkpt>
      <trkpt lat="44.15773" lon="4.24321">
        <ele>187</ele>
        <time>2022-04-11T16:15:08Z</time>
      </trkpt>
      <trkpt lat="44.15748" lon="4.2434">
        <ele>187</ele>
        <time>2022-04-11T16:15:13Z</time>
      </trkpt>
      <trkpt lat="44.15674" lon="4.24385">
        <ele>189</ele>
        <time>2022-04-11T16:15:27Z</time>
      </trkpt>
      <trkpt lat="44.15573" lon="4.24457">
        <ele>187</ele>
        <time>2022-04-11T16:15:47Z</time>
      </trkpt>
      <trkpt lat="44.15557" lon="4.24467">
        <ele>186</ele>
        <time>2022-04-11T16:15:50Z</time>
      </trkpt>
      <trkpt lat="44.15538" lon="4.24473">
        <ele>186</ele>
        <time>2022-04-11T16:15:54Z</time>
      </trkpt>
      <trkpt lat="44.15518" lon="4.24477">
        <ele>185</ele>
        <time>2022-04-11T16:15:57Z</time>
      </trkpt>
      <trkpt lat="44.15473" lon="4.24476">
        <ele>184</ele>
        <time>2022-04-11T16:16:05Z</time>
      </trkpt>
      <trkpt lat="44.1543" lon="4.24482">
        <ele>185</ele>
        <time>2022-04-11T16:16:13Z</time>
      </trkpt>
      <trkpt lat="44.15407" lon="4.24488">
        <ele>185</ele>
        <time>2022-04-11T16:16:17Z</time>
      </trkpt>
      <trkpt lat="44.15388" lon="4.24496">
        <ele>186</ele>
        <time>2022-04-11T16:16:21Z</time>
      </trkpt>
      <trkpt lat="44.15349" lon="4.24518">
        <ele>188</ele>
        <time>2022-04-11T16:16:28Z</time>
      </trkpt>
      <trkpt lat="44.15334" lon="4.24523">
        <ele>189</ele>
        <time>2022-04-11T16:16:31Z</time>
      </trkpt>
      <trkpt lat="44.15322" lon="4.24522">
        <ele>189</ele>
        <time>2022-04-11T16:16:33Z</time>
      </trkpt>
      <trkpt lat="44.15296" lon="4.24508">
        <ele>190</ele>
        <time>2022-04-11T16:16:38Z</time>
      </trkpt>
      <trkpt lat="44.15205" lon="4.2445">
        <ele>188</ele>
        <time>2022-04-11T16:16:56Z</time>
      </trkpt>
      <trkpt lat="44.15172" lon="4.24443">
        <ele>188</ele>
        <time>2022-04-11T16:17:02Z</time>
      </trkpt>
      <trkpt lat="44.15143" lon="4.24448">
        <ele>189</ele>
        <time>2022-04-11T16:17:07Z</time>
      </trkpt>
      <trkpt lat="44.15048" lon="4.24489">
        <ele>193</ele>
        <time>2022-04-11T16:17:25Z</time>
      </trkpt>
      <trkpt lat="44.15027" lon="4.24496">
        <ele>193</ele>
        <time>2022-04-11T16:17:29Z</time>
      </trkpt>
      <trkpt lat="44.14834" lon="4.24547">
        <ele>201</ele>
        <time>2022-04-11T16:18:04Z</time>
      </trkpt>
      <trkpt lat="44.14731" lon="4.24559">
        <ele>204</ele>
        <time>2022-04-11T16:18:22Z</time>
      </trkpt>
      <trkpt lat="44.14697" lon="4.24568">
        <ele>203</ele>
        <time>2022-04-11T16:18:28Z</time>
      </trkpt>
      <trkpt lat="44.14658" lon="4.24582">
        <ele>204</ele>
        <time>2022-04-11T16:18:35Z</time>
      </trkpt>
      <trkpt lat="44.1462" lon="4.24591">
        <ele>203</ele>
        <time>2022-04-11T16:18:42Z</time>
      </trkpt>
      <trkpt lat="44.14589" lon="4.24589">
        <ele>202</ele>
        <time>2022-04-11T16:18:48Z</time>
      </trkpt>
      <trkpt lat="44.14313" lon="4.24556">
        <ele>200</ele>
        <time>2022-04-11T16:19:37Z</time>
      </trkpt>
      <trkpt lat="44.14255" lon="4.24579">
        <ele>202</ele>
        <time>2022-04-11T16:19:48Z</time>
      </trkpt>
      <trkpt lat="44.14197" lon="4.24616">
        <ele>201</ele>
        <time>2022-04-11T16:19:59Z</time>
      </trkpt>
      <trkpt lat="44.14182" lon="4.24619">
        <ele>200</ele>
        <time>2022-04-11T16:20:02Z</time>
      </trkpt>
      <trkpt lat="44.14026" lon="4.24606">
        <ele>197</ele>
        <time>2022-04-11T16:20:30Z</time>
      </trkpt>
      <trkpt lat="44.14026" lon="4.24637">
        <ele>200</ele>
        <time>2022-04-11T16:20:34Z</time>
      </trkpt>
      <trkpt lat="44.14035" lon="4.24658">
        <ele>202</ele>
        <time>2022-04-11T16:20:37Z</time>
      </trkpt>
      <trkpt lat="44.14053" lon="4.24689">
        <ele>204</ele>
        <time>2022-04-11T16:20:42Z</time>
      </trkpt>
      <trkpt lat="44.14074" lon="4.24769">
        <ele>213</ele>
        <time>2022-04-11T16:20:53Z</time>
      </trkpt>
      <trkpt lat="44.14074" lon="4.24803">
        <ele>217</ele>
        <time>2022-04-11T16:20:57Z</time>
      </trkpt>
      <trkpt lat="44.14129" lon="4.25052">
        <ele>239</ele>
        <time>2022-04-11T16:21:30Z</time>
      </trkpt>
      <trkpt lat="44.1422" lon="4.25142">
        <ele>247</ele>
        <time>2022-04-11T16:21:50Z</time>
      </trkpt>
      <trkpt lat="44.14335" lon="4.2532">
        <ele>256</ele>
        <time>2022-04-11T16:22:21Z</time>
      </trkpt>
      <trkpt lat="44.14344" lon="4.25345">
        <ele>255</ele>
        <time>2022-04-11T16:22:24Z</time>
      </trkpt>
      <trkpt lat="44.14347" lon="4.2537">
        <ele>255</ele>
        <time>2022-04-11T16:22:27Z</time>
      </trkpt>
      <trkpt lat="44.14368" lon="4.25431">
        <ele>253</ele>
        <time>2022-04-11T16:22:36Z</time>
      </trkpt>
      <trkpt lat="44.14402" lon="4.25499">
        <ele>255</ele>
        <time>2022-04-11T16:22:47Z</time>
      </trkpt>
      <trkpt lat="44.1441" lon="4.25527">
        <ele>256</ele>
        <time>2022-04-11T16:22:51Z</time>
      </trkpt>
      <trkpt lat="44.14411" lon="4.25548">
        <ele>258</ele>
        <time>2022-04-11T16:22:53Z</time>
      </trkpt>
      <trkpt lat="44.14407" lon="4.25578">
        <ele>260</ele>
        <time>2022-04-11T16:22:57Z</time>
      </trkpt>
      <trkpt lat="44.14409" lon="4.25613">
        <ele>263</ele>
        <time>2022-04-11T16:23:02Z</time>
      </trkpt>
      <trkpt lat="44.14423" lon="4.25682">
        <ele>268</ele>
        <time>2022-04-11T16:23:11Z</time>
      </trkpt>
      <trkpt lat="44.14445" lon="4.25736">
        <ele>268</ele>
        <time>2022-04-11T16:23:19Z</time>
      </trkpt>
      <trkpt lat="44.14453" lon="4.25772">
        <ele>270</ele>
        <time>2022-04-11T16:23:23Z</time>
      </trkpt>
      <trkpt lat="44.14454" lon="4.25802">
        <ele>272</ele>
        <time>2022-04-11T16:23:27Z</time>
      </trkpt>
      <trkpt lat="44.14445" lon="4.25824">
        <ele>275</ele>
        <time>2022-04-11T16:23:31Z</time>
      </trkpt>
      <trkpt lat="44.14433" lon="4.25841">
        <ele>279</ele>
        <time>2022-04-11T16:23:34Z</time>
      </trkpt>
      <trkpt lat="44.14374" lon="4.25856">
        <ele>284</ele>
        <time>2022-04-11T16:23:44Z</time>
      </trkpt>
      <trkpt lat="44.14244" lon="4.25988">
        <ele>301</ele>
        <time>2022-04-11T16:24:13Z</time>
      </trkpt>
      <trkpt lat="44.1413" lon="4.26134">
        <ele>320</ele>
        <time>2022-04-11T16:24:40Z</time>
      </trkpt>
      <trkpt lat="44.14115" lon="4.26163">
        <ele>323</ele>
        <time>2022-04-11T16:24:45Z</time>
      </trkpt>
      <trkpt lat="44.1411" lon="4.2619">
        <ele>325</ele>
        <time>2022-04-11T16:24:49Z</time>
      </trkpt>
      <trkpt lat="44.14117" lon="4.26215">
        <ele>328</ele>
        <time>2022-04-11T16:24:52Z</time>
      </trkpt>
      <trkpt lat="44.14156" lon="4.26286">
        <ele>334</ele>
        <time>2022-04-11T16:25:03Z</time>
      </trkpt>
      <trkpt lat="44.14165" lon="4.26308">
        <ele>335</ele>
        <time>2022-04-11T16:25:07Z</time>
      </trkpt>
      <trkpt lat="44.14168" lon="4.26328">
        <ele>336</ele>
        <time>2022-04-11T16:25:09Z</time>
      </trkpt>
      <trkpt lat="44.14166" lon="4.26425">
        <ele>337</ele>
        <time>2022-04-11T16:25:22Z</time>
      </trkpt>
      <trkpt lat="44.14155" lon="4.26463">
        <ele>338</ele>
        <time>2022-04-11T16:25:27Z</time>
      </trkpt>
      <trkpt lat="44.14133" lon="4.26575">
        <ele>345</ele>
        <time>2022-04-11T16:25:42Z</time>
      </trkpt>
      <trkpt lat="44.14129" lon="4.26622">
        <ele>351</ele>
        <time>2022-04-11T16:25:48Z</time>
      </trkpt>
      <trkpt lat="44.14132" lon="4.26653">
        <ele>355</ele>
        <time>2022-04-11T16:25:52Z</time>
      </trkpt>
      <trkpt lat="44.14164" lon="4.26787">
        <ele>376</ele>
        <time>2022-04-11T16:26:10Z</time>
      </trkpt>
      <trkpt lat="44.14189" lon="4.2684">
        <ele>381</ele>
        <time>2022-04-11T16:26:18Z</time>
      </trkpt>
      <trkpt lat="44.14206" lon="4.26886">
        <ele>384</ele>
        <time>2022-04-11T16:26:24Z</time>
      </trkpt>
      <trkpt lat="44.14212" lon="4.26913">
        <ele>387</ele>
        <time>2022-04-11T16:26:28Z</time>
      </trkpt>
      <trkpt lat="44.14212" lon="4.26932">
        <ele>388</ele>
        <time>2022-04-11T16:26:31Z</time>
      </trkpt>
      <trkpt lat="44.14202" lon="4.26981">
        <ele>395</ele>
        <time>2022-04-11T16:26:37Z</time>
      </trkpt>
      <trkpt lat="44.14194" lon="4.26997">
        <ele>398</ele>
        <time>2022-04-11T16:26:40Z</time>
      </trkpt>
      <trkpt lat="44.14186" lon="4.27006">
        <ele>400</ele>
        <time>2022-04-11T16:26:41Z</time>
      </trkpt>
      <trkpt lat="44.14178" lon="4.2701">
        <ele>402</ele>
        <time>2022-04-11T16:26:43Z</time>
      </trkpt>
      <trkpt lat="44.14086" lon="4.27">
        <ele>415</ele>
        <time>2022-04-11T16:26:59Z</time>
      </trkpt>
      <trkpt lat="44.14072" lon="4.27002">
        <ele>415</ele>
        <time>2022-04-11T16:27:02Z</time>
      </trkpt>
      <trkpt lat="44.14061" lon="4.27007">
        <ele>415</ele>
        <time>2022-04-11T16:27:04Z</time>
      </trkpt>
      <trkpt lat="44.14051" lon="4.27017">
        <ele>416</ele>
        <time>2022-04-11T16:27:06Z</time>
      </trkpt>
      <trkpt lat="44.14034" lon="4.27061">
        <ele>420</ele>
        <time>2022-04-11T16:27:12Z</time>
      </trkpt>
      <trkpt lat="44.1396" lon="4.27218">
        <ele>437</ele>
        <time>2022-04-11T16:27:36Z</time>
      </trkpt>
      <trkpt lat="44.1395" lon="4.27227">
        <ele>438</ele>
        <time>2022-04-11T16:27:38Z</time>
      </trkpt>
      <trkpt lat="44.13903" lon="4.27254">
        <ele>445</ele>
        <time>2022-04-11T16:27:48Z</time>
      </trkpt>
      <trkpt lat="44.13852" lon="4.27279">
        <ele>447</ele>
        <time>2022-04-11T16:27:57Z</time>
      </trkpt>
      <trkpt lat="44.13841" lon="4.27287">
        <ele>448</ele>
        <time>2022-04-11T16:27:59Z</time>
      </trkpt>
      <trkpt lat="44.13837" lon="4.27294">
        <ele>448</ele>
        <time>2022-04-11T16:28:01Z</time>
      </trkpt>
      <trkpt lat="44.1383" lon="4.27343">
        <ele>453</ele>
        <time>2022-04-11T16:28:07Z</time>
      </trkpt>
      <trkpt lat="44.13831" lon="4.27364">
        <ele>456</ele>
        <time>2022-04-11T16:28:10Z</time>
      </trkpt>
      <trkpt lat="44.13835" lon="4.27381">
        <ele>459</ele>
        <time>2022-04-11T16:28:12Z</time>
      </trkpt>
      <trkpt lat="44.13844" lon="4.27395">
        <ele>461</ele>
        <time>2022-04-11T16:28:14Z</time>
      </trkpt>
      <trkpt lat="44.13864" lon="4.27413">
        <ele>464</ele>
        <time>2022-04-11T16:28:19Z</time>
      </trkpt>
      <trkpt lat="44.13887" lon="4.27449">
        <ele>471</ele>
        <time>2022-04-11T16:28:25Z</time>
      </trkpt>
      <trkpt lat="44.13908" lon="4.27474">
        <ele>476</ele>
        <time>2022-04-11T16:28:30Z</time>
      </trkpt>
      <trkpt lat="44.13926" lon="4.27491">
        <ele>478</ele>
        <time>2022-04-11T16:28:33Z</time>
      </trkpt>
      <trkpt lat="44.13932" lon="4.27505">
        <ele>479</ele>
        <time>2022-04-11T16:28:36Z</time>
      </trkpt>
      <trkpt lat="44.13932" lon="4.27519">
        <ele>480</ele>
        <time>2022-04-11T16:28:37Z</time>
      </trkpt>
      <trkpt lat="44.13928" lon="4.27535">
        <ele>482</ele>
        <time>2022-04-11T16:28:39Z</time>
      </trkpt>
      <trkpt lat="44.13903" lon="4.27588">
        <ele>486</ele>
        <time>2022-04-11T16:28:48Z</time>
      </trkpt>
      <trkpt lat="44.13899" lon="4.27602">
        <ele>487</ele>
        <time>2022-04-11T16:28:49Z</time>
      </trkpt>
      <trkpt lat="44.13894" lon="4.27705">
        <ele>492</ele>
        <time>2022-04-11T16:29:03Z</time>
      </trkpt>
      <trkpt lat="44.13886" lon="4.27728">
        <ele>493</ele>
        <time>2022-04-11T16:29:06Z</time>
      </trkpt>
      <trkpt lat="44.13834" lon="4.27821">
        <ele>501</ele>
        <time>2022-04-11T16:29:21Z</time>
      </trkpt>
      <trkpt lat="44.13822" lon="4.27862">
        <ele>504</ele>
        <time>2022-04-11T16:29:27Z</time>
      </trkpt>
      <trkpt lat="44.13801" lon="4.27914">
        <ele>510</ele>
        <time>2022-04-11T16:29:34Z</time>
      </trkpt>
      <trkpt lat="44.13786" lon="4.27938">
        <ele>512</ele>
        <time>2022-04-11T16:29:38Z</time>
      </trkpt>
      <trkpt lat="44.13775" lon="4.27946">
        <ele>513</ele>
        <time>2022-04-11T16:29:41Z</time>
      </trkpt>
      <trkpt lat="44.13663" lon="4.28001">
        <ele>528</ele>
        <time>2022-04-11T16:30:02Z</time>
      </trkpt>
      <trkpt lat="44.13574" lon="4.28051">
        <ele>541</ele>
        <time>2022-04-11T16:30:19Z</time>
      </trkpt>
      <trkpt lat="44.13449" lon="4.28167">
        <ele>560</ele>
        <time>2022-04-11T16:30:45Z</time>
      </trkpt>
      <trkpt lat="44.13404" lon="4.28201">
        <ele>565</ele>
        <time>2022-04-11T16:30:55Z</time>
      </trkpt>
      <trkpt lat="44.13437" lon="4.28197">
        <ele>565</ele>
        <time>2022-04-11T16:31:00Z</time>
      </trkpt>
      <trkpt lat="44.13454" lon="4.28198">
        <ele>564</ele>
        <time>2022-04-11T16:31:03Z</time>
      </trkpt>
      <trkpt lat="44.13491" lon="4.28221">
        <ele>566</ele>
        <time>2022-04-11T16:31:11Z</time>
      </trkpt>
      <trkpt lat="44.13503" lon="4.28232">
        <ele>567</ele>
        <time>2022-04-11T16:31:13Z</time>
      </trkpt>
      <trkpt lat="44.13509" lon="4.28245">
        <ele>567</ele>
        <time>2022-04-11T16:31:15Z</time>
      </trkpt>
      <trkpt lat="44.13517" lon="4.28289">
        <ele>568</ele>
        <time>2022-04-11T16:31:21Z</time>
      </trkpt>
      <trkpt lat="44.13528" lon="4.28313">
        <ele>568</ele>
        <time>2022-04-11T16:31:25Z</time>
      </trkpt>
      <trkpt lat="44.13555" lon="4.28346">
        <ele>565</ele>
        <time>2022-04-11T16:31:31Z</time>
      </trkpt>
      <trkpt lat="44.13581" lon="4.28367">
        <ele>563</ele>
        <time>2022-04-11T16:31:36Z</time>
      </trkpt>
      <trkpt lat="44.13611" lon="4.28387">
        <ele>561</ele>
        <time>2022-04-11T16:31:42Z</time>
      </trkpt>
      <trkpt lat="44.13658" lon="4.28409">
        <ele>555</ele>
        <time>2022-04-11T16:31:51Z</time>
      </trkpt>
      <trkpt lat="44.13671" lon="4.28411">
        <ele>553</ele>
        <time>2022-04-11T16:31:53Z</time>
      </trkpt>
      <trkpt lat="44.13716" lon="4.28392">
        <ele>548</ele>
        <time>2022-04-11T16:32:02Z</time>
      </trkpt>
      <trkpt lat="44.13728" lon="4.28389">
        <ele>548</ele>
        <time>2022-04-11T16:32:04Z</time>
      </trkpt>
      <trkpt lat="44.13737" lon="4.28392">
        <ele>547</ele>
        <time>2022-04-11T16:32:06Z</time>
      </trkpt>
      <trkpt lat="44.13742" lon="4.28401">
        <ele>547</ele>
        <time>2022-04-11T16:32:07Z</time>
      </trkpt>
      <trkpt lat="44.13743" lon="4.28412">
        <ele>547</ele>
        <time>2022-04-11T16:32:09Z</time>
      </trkpt>
      <trkpt lat="44.13731" lon="4.28462">
        <ele>545</ele>
        <time>2022-04-11T16:32:15Z</time>
      </trkpt>
      <trkpt lat="44.13726" lon="4.28504">
        <ele>542</ele>
        <time>2022-04-11T16:32:21Z</time>
      </trkpt>
      <trkpt lat="44.13728" lon="4.28531">
        <ele>538</ele>
        <time>2022-04-11T16:32:24Z</time>
      </trkpt>
      <trkpt lat="44.13733" lon="4.28555">
        <ele>535</ele>
        <time>2022-04-11T16:32:27Z</time>
      </trkpt>
      <trkpt lat="44.13755" lon="4.28613">
        <ele>521</ele>
        <time>2022-04-11T16:32:36Z</time>
      </trkpt>
      <trkpt lat="44.13765" lon="4.2863">
        <ele>517</ele>
        <time>2022-04-11T16:32:39Z</time>
      </trkpt>
      <trkpt lat="44.13777" lon="4.28641">
        <ele>515</ele>
        <time>2022-04-11T16:32:41Z</time>
      </trkpt>
      <trkpt lat="44.13823" lon="4.28655">
        <ele>515</ele>
        <time>2022-04-11T16:32:49Z</time>
      </trkpt>
      <trkpt lat="44.1385" lon="4.28676">
        <ele>514</ele>
        <time>2022-04-11T16:32:55Z</time>
      </trkpt>
      <trkpt lat="44.13858" lon="4.28678">
        <ele>515</ele>
        <time>2022-04-11T16:32:56Z</time>
      </trkpt>
      <trkpt lat="44.13878" lon="4.28674">
        <ele>520</ele>
        <time>2022-04-11T16:33:00Z</time>
      </trkpt>
      <trkpt lat="44.13886" lon="4.28678">
        <ele>521</ele>
        <time>2022-04-11T16:33:02Z</time>
      </trkpt>
      <trkpt lat="44.13945" lon="4.28758">
        <ele>515</ele>
        <time>2022-04-11T16:33:16Z</time>
      </trkpt>
      <trkpt lat="44.14033" lon="4.28823">
        <ele>504</ele>
        <time>2022-04-11T16:33:34Z</time>
      </trkpt>
      <trkpt lat="44.14057" lon="4.28837">
        <ele>501</ele>
        <time>2022-04-11T16:33:39Z</time>
      </trkpt>
      <trkpt lat="44.14074" lon="4.28856">
        <ele>497</ele>
        <time>2022-04-11T16:33:42Z</time>
      </trkpt>
      <trkpt lat="44.14091" lon="4.28866">
        <ele>496</ele>
        <time>2022-04-11T16:33:46Z</time>
      </trkpt>
      <trkpt lat="44.14119" lon="4.28876">
        <ele>497</ele>
        <time>2022-04-11T16:33:51Z</time>
      </trkpt>
      <trkpt lat="44.14166" lon="4.28899">
        <ele>492</ele>
        <time>2022-04-11T16:34:00Z</time>
      </trkpt>
      <trkpt lat="44.14185" lon="4.28916">
        <ele>482</ele>
        <time>2022-04-11T16:34:04Z</time>
      </trkpt>
      <trkpt lat="44.1421" lon="4.28951">
        <ele>472</ele>
        <time>2022-04-11T16:34:10Z</time>
      </trkpt>
      <trkpt lat="44.14218" lon="4.28957">
        <ele>471</ele>
        <time>2022-04-11T16:34:12Z</time>
      </trkpt>
      <trkpt lat="44.14231" lon="4.28958">
        <ele>471</ele>
        <time>2022-04-11T16:34:14Z</time>
      </trkpt>
      <trkpt lat="44.14256" lon="4.28953">
        <ele>471</ele>
        <time>2022-04-11T16:34:18Z</time>
      </trkpt>
      <trkpt lat="44.1426" lon="4.28957">
        <ele>469</ele>
        <time>2022-04-11T16:34:19Z</time>
      </trkpt>
      <trkpt lat="44.14261" lon="4.28963">
        <ele>468</ele>
        <time>2022-04-11T16:34:20Z</time>
      </trkpt>
      <trkpt lat="44.14258" lon="4.28969">
        <ele>467</ele>
        <time>2022-04-11T16:34:21Z</time>
      </trkpt>
      <trkpt lat="44.14237" lon="4.28984">
        <ele>464</ele>
        <time>2022-04-11T16:34:25Z</time>
      </trkpt>
      <trkpt lat="44.14218" lon="4.28994">
        <ele>461</ele>
        <time>2022-04-11T16:34:29Z</time>
      </trkpt>
      <trkpt lat="44.14201" lon="4.28993">
        <ele>461</ele>
        <time>2022-04-11T16:34:32Z</time>
      </trkpt>
      <trkpt lat="44.14146" lon="4.28964">
        <ele>466</ele>
        <time>2022-04-11T16:34:42Z</time>
      </trkpt>
      <trkpt lat="44.14129" lon="4.2896">
        <ele>465</ele>
        <time>2022-04-11T16:34:45Z</time>
      </trkpt>
      <trkpt lat="44.14073" lon="4.28964">
        <ele>457</ele>
        <time>2022-04-11T16:34:55Z</time>
      </trkpt>
      <trkpt lat="44.14057" lon="4.28961">
        <ele>456</ele>
        <time>2022-04-11T16:34:58Z</time>
      </trkpt>
      <trkpt lat="44.14052" lon="4.28964">
        <ele>454</ele>
        <time>2022-04-11T16:34:59Z</time>
      </trkpt>
      <trkpt lat="44.14051" lon="4.28974">
        <ele>451</ele>
        <time>2022-04-11T16:35:01Z</time>
      </trkpt>
      <trkpt lat="44.14056" lon="4.28984">
        <ele>449</ele>
        <time>2022-04-11T16:35:02Z</time>
      </trkpt>
      <trkpt lat="44.14072" lon="4.28992">
        <ele>449</ele>
        <time>2022-04-11T16:35:05Z</time>
      </trkpt>
      <trkpt lat="44.14113" lon="4.28995">
        <ele>453</ele>
        <time>2022-04-11T16:35:12Z</time>
      </trkpt>
      <trkpt lat="44.14137" lon="4.29013">
        <ele>450</ele>
        <time>2022-04-11T16:35:17Z</time>
      </trkpt>
      <trkpt lat="44.14156" lon="4.2904">
        <ele>444</ele>
        <time>2022-04-11T16:35:22Z</time>
      </trkpt>
      <trkpt lat="44.14166" lon="4.29069">
        <ele>437</ele>
        <time>2022-04-11T16:35:26Z</time>
      </trkpt>
      <trkpt lat="44.14182" lon="4.29095">
        <ele>432</ele>
        <time>2022-04-11T16:35:31Z</time>
      </trkpt>
      <trkpt lat="44.14202" lon="4.2911">
        <ele>430</ele>
        <time>2022-04-11T16:35:35Z</time>
      </trkpt>
      <trkpt lat="44.1421" lon="4.29126">
        <ele>427</ele>
        <time>2022-04-11T16:35:37Z</time>
      </trkpt>
      <trkpt lat="44.14269" lon="4.29138">
        <ele>424</ele>
        <time>2022-04-11T16:35:48Z</time>
      </trkpt>
      <trkpt lat="44.14286" lon="4.29136">
        <ele>423</ele>
        <time>2022-04-11T16:35:51Z</time>
      </trkpt>
      <trkpt lat="44.14365" lon="4.29111">
        <ele>419</ele>
        <time>2022-04-11T16:36:05Z</time>
      </trkpt>
      <trkpt lat="44.14512" lon="4.29076">
        <ele>411</ele>
        <time>2022-04-11T16:36:32Z</time>
      </trkpt>
      <trkpt lat="44.14541" lon="4.29083">
        <ele>410</ele>
        <time>2022-04-11T16:36:37Z</time>
      </trkpt>
      <trkpt lat="44.14576" lon="4.29083">
        <ele>408</ele>
        <time>2022-04-11T16:36:43Z</time>
      </trkpt>
      <trkpt lat="44.14594" lon="4.29087">
        <ele>407</ele>
        <time>2022-04-11T16:36:46Z</time>
      </trkpt>
      <trkpt lat="44.14643" lon="4.29113">
        <ele>403</ele>
        <time>2022-04-11T16:36:56Z</time>
      </trkpt>
      <trkpt lat="44.14651" lon="4.29115">
        <ele>403</ele>
        <time>2022-04-11T16:36:57Z</time>
      </trkpt>
      <trkpt lat="44.1467" lon="4.2911">
        <ele>402</ele>
        <time>2022-04-11T16:37:01Z</time>
      </trkpt>
      <trkpt lat="44.14689" lon="4.29101">
        <ele>400</ele>
        <time>2022-04-11T16:37:04Z</time>
      </trkpt>
      <trkpt lat="44.14713" lon="4.29096">
        <ele>398</ele>
        <time>2022-04-11T16:37:08Z</time>
      </trkpt>
      <trkpt lat="44.14726" lon="4.29097">
        <ele>397</ele>
        <time>2022-04-11T16:37:11Z</time>
      </trkpt>
      <trkpt lat="44.14766" lon="4.2911">
        <ele>391</ele>
        <time>2022-04-11T16:37:18Z</time>
      </trkpt>
      <trkpt lat="44.14865" lon="4.29105">
        <ele>382</ele>
        <time>2022-04-11T16:37:36Z</time>
      </trkpt>
      <trkpt lat="44.14954" lon="4.29094">
        <ele>373</ele>
        <time>2022-04-11T16:37:52Z</time>
      </trkpt>
      <trkpt lat="44.1503" lon="4.29114">
        <ele>362</ele>
        <time>2022-04-11T16:38:05Z</time>
      </trkpt>
      <trkpt lat="44.15042" lon="4.29121">
        <ele>360</ele>
        <time>2022-04-11T16:38:08Z</time>
      </trkpt>
      <trkpt lat="44.15074" lon="4.29151">
        <ele>357</ele>
        <time>2022-04-11T16:38:15Z</time>
      </trkpt>
      <trkpt lat="44.1509" lon="4.2916">
        <ele>357</ele>
        <time>2022-04-11T16:38:18Z</time>
      </trkpt>
      <trkpt lat="44.15141" lon="4.29181">
        <ele>350</ele>
        <time>2022-04-11T16:38:27Z</time>
      </trkpt>
      <trkpt lat="44.15154" lon="4.29182">
        <ele>348</ele>
        <time>2022-04-11T16:38:29Z</time>
      </trkpt>
      <trkpt lat="44.15173" lon="4.29176">
        <ele>347</ele>
        <time>2022-04-11T16:38:33Z</time>
      </trkpt>
      <trkpt lat="44.15237" lon="4.2913">
        <ele>339</ele>
        <time>2022-04-11T16:38:46Z</time>
      </trkpt>
      <trkpt lat="44.15316" lon="4.29058">
        <ele>330</ele>
        <time>2022-04-11T16:39:03Z</time>
      </trkpt>
      <trkpt lat="44.15326" lon="4.29054">
        <ele>330</ele>
        <time>2022-04-11T16:39:04Z</time>
      </trkpt>
      <trkpt lat="44.15348" lon="4.29052">
        <ele>328</ele>
        <time>2022-04-11T16:39:08Z</time>
      </trkpt>
      <trkpt lat="44.15374" lon="4.29038">
        <ele>326</ele>
        <time>2022-04-11T16:39:13Z</time>
      </trkpt>
      <trkpt lat="44.15386" lon="4.29034">
        <ele>326</ele>
        <time>2022-04-11T16:39:15Z</time>
      </trkpt>
      <trkpt lat="44.15398" lon="4.29035">
        <ele>325</ele>
        <time>2022-04-11T16:39:18Z</time>
      </trkpt>
      <trkpt lat="44.15453" lon="4.29063">
        <ele>322</ele>
        <time>2022-04-11T16:39:28Z</time>
      </trkpt>
      <trkpt lat="44.15488" lon="4.29063">
        <ele>319</ele>
        <time>2022-04-11T16:39:34Z</time>
      </trkpt>
      <trkpt lat="44.15581" lon="4.29042">
        <ele>315</ele>
        <time>2022-04-11T16:39:51Z</time>
      </trkpt>
      <trkpt lat="44.15608" lon="4.29027">
        <ele>314</ele>
        <time>2022-04-11T16:39:56Z</time>
      </trkpt>
      <trkpt lat="44.1564" lon="4.29014">
        <ele>313</ele>
        <time>2022-04-11T16:40:02Z</time>
      </trkpt>
      <trkpt lat="44.15687" lon="4.29001">
        <ele>313</ele>
        <time>2022-04-11T16:40:11Z</time>
      </trkpt>
      <trkpt lat="44.15762" lon="4.28999">
        <ele>312</ele>
        <time>2022-04-11T16:40:24Z</time>
      </trkpt>
      <trkpt lat="44.15786" lon="4.29006">
        <ele>310</ele>
        <time>2022-04-11T16:40:28Z</time>
      </trkpt>
      <trkpt lat="44.15823" lon="4.29025">
        <ele>308</ele>
        <time>2022-04-11T16:40:35Z</time>
      </trkpt>
      <trkpt lat="44.15832" lon="4.29027">
        <ele>308</ele>
        <time>2022-04-11T16:40:37Z</time>
      </trkpt>
      <trkpt lat="44.15845" lon="4.29025">
        <ele>308</ele>
        <time>2022-04-11T16:40:39Z</time>
      </trkpt>
      <trkpt lat="44.15894" lon="4.29003">
        <ele>310</ele>
        <time>2022-04-11T16:40:48Z</time>
      </trkpt>
      <trkpt lat="44.15937" lon="4.28969">
        <ele>309</ele>
        <time>2022-04-11T16:40:57Z</time>
      </trkpt>
      <trkpt lat="44.15956" lon="4.28961">
        <ele>308</ele>
        <time>2022-04-11T16:41:01Z</time>
      </trkpt>
      <trkpt lat="44.15965" lon="4.29032">
        <ele>306</ele>
        <time>2022-04-11T16:41:10Z</time>
      </trkpt>
      <trkpt lat="44.15976" lon="4.29091">
        <ele>302</ele>
        <time>2022-04-11T16:41:18Z</time>
      </trkpt>
      <trkpt lat="44.1598" lon="4.29136">
        <ele>299</ele>
        <time>2022-04-11T16:41:24Z</time>
      </trkpt>
      <trkpt lat="44.1597" lon="4.29198">
        <ele>295</ele>
        <time>2022-04-11T16:41:32Z</time>
      </trkpt>
      <trkpt lat="44.15962" lon="4.29297">
        <ele>289</ele>
        <time>2022-04-11T16:41:44Z</time>
      </trkpt>
      <trkpt lat="44.15962" lon="4.29316">
        <ele>288</ele>
        <time>2022-04-11T16:41:47Z</time>
      </trkpt>
      <trkpt lat="44.15966" lon="4.29333">
        <ele>286</ele>
        <time>2022-04-11T16:41:49Z</time>
      </trkpt>
      <trkpt lat="44.15964" lon="4.29349">
        <ele>286</ele>
        <time>2022-04-11T16:41:51Z</time>
      </trkpt>
      <trkpt lat="44.15918" lon="4.29416">
        <ele>291</ele>
        <time>2022-04-11T16:42:03Z</time>
      </trkpt>
      <trkpt lat="44.15857" lon="4.29554">
        <ele>293</ele>
        <time>2022-04-11T16:42:24Z</time>
      </trkpt>
      <trkpt lat="44.15849" lon="4.29577">
        <ele>292</ele>
        <time>2022-04-11T16:42:27Z</time>
      </trkpt>
      <trkpt lat="44.1584" lon="4.2963">
        <ele>291</ele>
        <time>2022-04-11T16:42:34Z</time>
      </trkpt>
      <trkpt lat="44.15832" lon="4.29662">
        <ele>290</ele>
        <time>2022-04-11T16:42:38Z</time>
      </trkpt>
      <trkpt lat="44.15824" lon="4.29678">
        <ele>291</ele>
        <time>2022-04-11T16:42:41Z</time>
      </trkpt>
      <trkpt lat="44.15817" lon="4.29686">
        <ele>291</ele>
        <time>2022-04-11T16:42:42Z</time>
      </trkpt>
      <trkpt lat="44.15774" lon="4.29719">
        <ele>293</ele>
        <time>2022-04-11T16:42:51Z</time>
      </trkpt>
      <trkpt lat="44.15757" lon="4.29741">
        <ele>293</ele>
        <time>2022-04-11T16:42:55Z</time>
      </trkpt>
      <trkpt lat="44.1573" lon="4.298">
        <ele>295</ele>
        <time>2022-04-11T16:43:04Z</time>
      </trkpt>
      <trkpt lat="44.15637" lon="4.29962">
        <ele>303</ele>
        <time>2022-04-11T16:43:31Z</time>
      </trkpt>
      <trkpt lat="44.15564" lon="4.30083">
        <ele>312</ele>
        <time>2022-04-11T16:43:51Z</time>
      </trkpt>
      <trkpt lat="44.15551" lon="4.30136">
        <ele>314</ele>
        <time>2022-04-11T16:43:58Z</time>
      </trkpt>
      <trkpt lat="44.15534" lon="4.30185">
        <ele>315</ele>
        <time>2022-04-11T16:44:05Z</time>
      </trkpt>
      <trkpt lat="44.1551" lon="4.3022">
        <ele>316</ele>
        <time>2022-04-11T16:44:11Z</time>
      </trkpt>
      <trkpt lat="44.15477" lon="4.30278">
        <ele>317</ele>
        <time>2022-04-11T16:44:21Z</time>
      </trkpt>
      <trkpt lat="44.15442" lon="4.30327">
        <ele>320</ele>
        <time>2022-04-11T16:44:29Z</time>
      </trkpt>
      <trkpt lat="44.15388" lon="4.3041">
        <ele>325</ele>
        <time>2022-04-11T16:44:44Z</time>
      </trkpt>
      <trkpt lat="44.15361" lon="4.30463">
        <ele>327</ele>
        <time>2022-04-11T16:44:52Z</time>
      </trkpt>
      <trkpt lat="44.15325" lon="4.30611">
        <ele>332</ele>
        <time>2022-04-11T16:45:12Z</time>
      </trkpt>
      <trkpt lat="44.15312" lon="4.30691">
        <ele>336</ele>
        <time>2022-04-11T16:45:22Z</time>
      </trkpt>
      <trkpt lat="44.15315" lon="4.30719">
        <ele>337</ele>
        <time>2022-04-11T16:45:26Z</time>
      </trkpt>
      <trkpt lat="44.15302" lon="4.30773">
        <ele>339</ele>
        <time>2022-04-11T16:45:33Z</time>
      </trkpt>
      <trkpt lat="44.15277" lon="4.30817">
        <ele>341</ele>
        <time>2022-04-11T16:45:40Z</time>
      </trkpt>
      <trkpt lat="44.15254" lon="4.30849">
        <ele>342</ele>
        <time>2022-04-11T16:45:46Z</time>
      </trkpt>
      <trkpt lat="44.15221" lon="4.30924">
        <ele>343</ele>
        <time>2022-04-11T16:45:57Z</time>
      </trkpt>
      <trkpt lat="44.15197" lon="4.30962">
        <ele>343</ele>
        <time>2022-04-11T16:46:04Z</time>
      </trkpt>
      <trkpt lat="44.15179" lon="4.31003">
        <ele>343</ele>
        <time>2022-04-11T16:46:10Z</time>
      </trkpt>
      <trkpt lat="44.15153" lon="4.31052">
        <ele>341</ele>
        <time>2022-04-11T16:46:18Z</time>
      </trkpt>
      <trkpt lat="44.15248" lon="4.31098">
        <ele>338</ele>
        <time>2022-04-11T16:46:36Z</time>
      </trkpt>
      <trkpt lat="44.15264" lon="4.31102">
        <ele>338</ele>
        <time>2022-04-11T16:46:39Z</time>
      </trkpt>
      <trkpt lat="44.15352" lon="4.31095">
        <ele>339</ele>
        <time>2022-04-11T16:46:54Z</time>
      </trkpt>
      <trkpt lat="44.15371" lon="4.31105">
        <ele>338</ele>
        <time>2022-04-11T16:46:58Z</time>
      </trkpt>
      <trkpt lat="44.15441" lon="4.31153">
        <ele>334</ele>
        <time>2022-04-11T16:47:12Z</time>
      </trkpt>
      <trkpt lat="44.15463" lon="4.31174">
        <ele>333</ele>
        <time>2022-04-11T16:47:17Z</time>
      </trkpt>
      <trkpt lat="44.15478" lon="4.31248">
        <ele>333</ele>
        <time>2022-04-11T16:47:26Z</time>
      </trkpt>
      <trkpt lat="44.15493" lon="4.31271">
        <ele>330</ele>
        <time>2022-04-11T16:47:30Z</time>
      </trkpt>
      <trkpt lat="44.15579" lon="4.3132">
        <ele>330</ele>
        <time>2022-04-11T16:47:47Z</time>
      </trkpt>
      <trkpt lat="44.15621" lon="4.31351">
        <ele>328</ele>
        <time>2022-04-11T16:47:55Z</time>
      </trkpt>
      <trkpt lat="44.15646" lon="4.31385">
        <ele>328</ele>
        <time>2022-04-11T16:48:01Z</time>
      </trkpt>
      <trkpt lat="44.15687" lon="4.31478">
        <ele>328</ele>
        <time>2022-04-11T16:48:15Z</time>
      </trkpt>
      <trkpt lat="44.15703" lon="4.315">
        <ele>329</ele>
        <time>2022-04-11T16:48:19Z</time>
      </trkpt>
      <trkpt lat="44.15721" lon="4.31513">
        <ele>330</ele>
        <time>2022-04-11T16:48:23Z</time>
      </trkpt>
      <trkpt lat="44.1578" lon="4.31526">
        <ele>332</ele>
        <time>2022-04-11T16:48:34Z</time>
      </trkpt>
      <trkpt lat="44.15816" lon="4.31538">
        <ele>332</ele>
        <time>2022-04-11T16:48:40Z</time>
      </trkpt>
      <trkpt lat="44.15888" lon="4.31587">
        <ele>334</ele>
        <time>2022-04-11T16:48:55Z</time>
      </trkpt>
      <trkpt lat="44.15912" lon="4.31587">
        <ele>334</ele>
        <time>2022-04-11T16:48:59Z</time>
      </trkpt>
      <trkpt lat="44.16065" lon="4.31515">
        <ele>339</ele>
        <time>2022-04-11T16:49:28Z</time>
      </trkpt>
      <trkpt lat="44.16077" lon="4.31506">
        <ele>339</ele>
        <time>2022-04-11T16:49:30Z</time>
      </trkpt>
      <trkpt lat="44.16087" lon="4.31486">
        <ele>340</ele>
        <time>2022-04-11T16:49:33Z</time>
      </trkpt>
      <trkpt lat="44.16121" lon="4.3139">
        <ele>338</ele>
        <time>2022-04-11T16:49:47Z</time>
      </trkpt>
      <trkpt lat="44.16194" lon="4.31347">
        <ele>336</ele>
        <time>2022-04-11T16:50:01Z</time>
      </trkpt>
      <trkpt lat="44.16275" lon="4.31347">
        <ele>335</ele>
        <time>2022-04-11T16:50:15Z</time>
      </trkpt>
      <trkpt lat="44.16322" lon="4.31335">
        <ele>336</ele>
        <time>2022-04-11T16:50:24Z</time>
      </trkpt>
      <trkpt lat="44.16353" lon="4.31249">
        <ele>332</ele>
        <time>2022-04-11T16:50:36Z</time>
      </trkpt>
      <trkpt lat="44.16394" lon="4.31306">
        <ele>335</ele>
        <time>2022-04-11T16:50:46Z</time>
      </trkpt>
      <trkpt lat="44.16401" lon="4.3133">
        <ele>337</ele>
        <time>2022-04-11T16:50:50Z</time>
      </trkpt>
      <trkpt lat="44.16411" lon="4.3148">
        <ele>344</ele>
        <time>2022-04-11T16:51:09Z</time>
      </trkpt>
      <trkpt lat="44.16413" lon="4.31496">
        <ele>344</ele>
        <time>2022-04-11T16:51:11Z</time>
      </trkpt>
      <trkpt lat="44.16422" lon="4.31517">
        <ele>345</ele>
        <time>2022-04-11T16:51:14Z</time>
      </trkpt>
      <trkpt lat="44.16442" lon="4.31541">
        <ele>345</ele>
        <time>2022-04-11T16:51:19Z</time>
      </trkpt>
      <trkpt lat="44.165" lon="4.31595">
        <ele>345</ele>
        <time>2022-04-11T16:51:31Z</time>
      </trkpt>
      <trkpt lat="44.16541" lon="4.31618">
        <ele>345</ele>
        <time>2022-04-11T16:51:39Z</time>
      </trkpt>
      <trkpt lat="44.16669" lon="4.31679">
        <ele>345</ele>
        <time>2022-04-11T16:52:03Z</time>
      </trkpt>
      <trkpt lat="44.16691" lon="4.31693">
        <ele>345</ele>
        <time>2022-04-11T16:52:07Z</time>
      </trkpt>
      <trkpt lat="44.16734" lon="4.31726">
        <ele>345</ele>
        <time>2022-04-11T16:52:16Z</time>
      </trkpt>
      <trkpt lat="44.1675" lon="4.31746">
        <ele>345</ele>
        <time>2022-04-11T16:52:20Z</time>
      </trkpt>
      <trkpt lat="44.16759" lon="4.3177">
        <ele>345</ele>
        <time>2022-04-11T16:52:23Z</time>
      </trkpt>
      <trkpt lat="44.16841" lon="4.323">
        <ele>345</ele>
        <time>2022-04-11T16:53:33Z</time>
      </trkpt>
      <trkpt lat="44.16845" lon="4.32305">
        <ele>344</ele>
        <time>2022-04-11T16:53:34Z</time>
      </trkpt>
      <trkpt lat="44.16891" lon="4.32124">
        <ele>344</ele>
        <time>2022-04-11T16:53:58Z</time>
      </trkpt>
      <trkpt lat="44.16943" lon="4.31958">
        <ele>340</ele>
        <time>2022-04-11T16:54:21Z</time>
      </trkpt>
      <trkpt lat="44.17044" lon="4.32044">
        <ele>334</ele>
        <time>2022-04-11T16:54:42Z</time>
      </trkpt>
      <trkpt lat="44.1708" lon="4.32069">
        <ele>333</ele>
        <time>2022-04-11T16:54:49Z</time>
      </trkpt>
      <trkpt lat="44.17233" lon="4.32162">
        <ele>332</ele>
        <time>2022-04-11T16:55:19Z</time>
      </trkpt>
      <trkpt lat="44.1728" lon="4.32194">
        <ele>332</ele>
        <time>2022-04-11T16:55:28Z</time>
      </trkpt>
      <trkpt lat="44.17405" lon="4.32286">
        <ele>331</ele>
        <time>2022-04-11T16:55:54Z</time>
      </trkpt>
      <trkpt lat="44.17581" lon="4.32396">
        <ele>322</ele>
        <time>2022-04-11T16:56:28Z</time>
      </trkpt>
      <trkpt lat="44.17683" lon="4.32457">
        <ele>317</ele>
        <time>2022-04-11T16:56:48Z</time>
      </trkpt>
      <trkpt lat="44.17734" lon="4.32484">
        <ele>314</ele>
        <time>2022-04-11T16:56:57Z</time>
      </trkpt>
      <trkpt lat="44.17913" lon="4.32609">
        <ele>306</ele>
        <time>2022-04-11T16:57:33Z</time>
      </trkpt>
      <trkpt lat="44.17931" lon="4.32618">
        <ele>306</ele>
        <time>2022-04-11T16:57:36Z</time>
      </trkpt>
      <trkpt lat="44.18108" lon="4.32682">
        <ele>298</ele>
        <time>2022-04-11T16:58:09Z</time>
      </trkpt>
      <trkpt lat="44.1819" lon="4.3274">
        <ele>298</ele>
        <time>2022-04-11T16:58:25Z</time>
      </trkpt>
      <trkpt lat="44.18204" lon="4.32754">
        <ele>298</ele>
        <time>2022-04-11T16:58:28Z</time>
      </trkpt>
      <trkpt lat="44.18235" lon="4.32805">
        <ele>297</ele>
        <time>2022-04-11T16:58:37Z</time>
      </trkpt>
      <trkpt lat="44.18264" lon="4.32833">
        <ele>296</ele>
        <time>2022-04-11T16:58:43Z</time>
      </trkpt>
      <trkpt lat="44.18331" lon="4.32867">
        <ele>294</ele>
        <time>2022-04-11T16:58:56Z</time>
      </trkpt>
      <trkpt lat="44.18412" lon="4.32914">
        <ele>293</ele>
        <time>2022-04-11T16:59:11Z</time>
      </trkpt>
      <trkpt lat="44.18427" lon="4.32927">
        <ele>293</ele>
        <time>2022-04-11T16:59:15Z</time>
      </trkpt>
      <trkpt lat="44.18444" lon="4.32926">
        <ele>294</ele>
        <time>2022-04-11T16:59:18Z</time>
      </trkpt>
      <trkpt lat="44.18465" lon="4.32907">
        <ele>295</ele>
        <time>2022-04-11T16:59:22Z</time>
      </trkpt>
      <trkpt lat="44.18493" lon="4.32841">
        <ele>295</ele>
        <time>2022-04-11T16:59:32Z</time>
      </trkpt>
      <trkpt lat="44.18533" lon="4.32777">
        <ele>298</ele>
        <time>2022-04-11T16:59:43Z</time>
      </trkpt>
      <trkpt lat="44.18568" lon="4.32705">
        <ele>300</ele>
        <time>2022-04-11T16:59:54Z</time>
      </trkpt>
      <trkpt lat="44.18598" lon="4.32638">
        <ele>302</ele>
        <time>2022-04-11T17:00:04Z</time>
      </trkpt>
      <trkpt lat="44.1861" lon="4.32592">
        <ele>303</ele>
        <time>2022-04-11T17:00:10Z</time>
      </trkpt>
      <trkpt lat="44.18618" lon="4.32588">
        <ele>303</ele>
        <time>2022-04-11T17:00:12Z</time>
      </trkpt>
      <trkpt lat="44.18678" lon="4.32597">
        <ele>305</ele>
        <time>2022-04-11T17:00:22Z</time>
      </trkpt>
      <trkpt lat="44.18693" lon="4.32596">
        <ele>307</ele>
        <time>2022-04-11T17:00:25Z</time>
      </trkpt>
      <trkpt lat="44.18728" lon="4.32546">
        <ele>308</ele>
        <time>2022-04-11T17:00:34Z</time>
      </trkpt>
      <trkpt lat="44.18785" lon="4.32493">
        <ele>312</ele>
        <time>2022-04-11T17:00:46Z</time>
      </trkpt>
      <trkpt lat="44.18831" lon="4.32441">
        <ele>315</ele>
        <time>2022-04-11T17:00:57Z</time>
      </trkpt>
      <trkpt lat="44.18916" lon="4.32362">
        <ele>319</ele>
        <time>2022-04-11T17:01:15Z</time>
      </trkpt>
      <trkpt lat="44.18962" lon="4.32308">
        <ele>322</ele>
        <time>2022-04-11T17:01:26Z</time>
      </trkpt>
      <trkpt lat="44.19019" lon="4.32252">
        <ele>325</ele>
        <time>2022-04-11T17:01:38Z</time>
      </trkpt>
      <trkpt lat="44.19049" lon="4.32227">
        <ele>327</ele>
        <time>2022-04-11T17:01:44Z</time>
      </trkpt>
      <trkpt lat="44.19063" lon="4.32219">
        <ele>327</ele>
        <time>2022-04-11T17:01:47Z</time>
      </trkpt>
      <trkpt lat="44.19063" lon="4.32233">
        <ele>327</ele>
        <time>2022-04-11T17:01:49Z</time>
      </trkpt>
      <trkpt lat="44.19052" lon="4.32251">
        <ele>326</ele>
        <time>2022-04-11T17:01:52Z</time>
      </trkpt>
      <trkpt lat="44.19039" lon="4.32321">
        <ele>327</ele>
        <time>2022-04-11T17:02:01Z</time>
      </trkpt>
      <trkpt lat="44.19037" lon="4.32345">
        <ele>327</ele>
        <time>2022-04-11T17:02:04Z</time>
      </trkpt>
      <trkpt lat="44.19038" lon="4.32497">
        <ele>326</ele>
        <time>2022-04-11T17:02:23Z</time>
      </trkpt>
      <trkpt lat="44.19026" lon="4.32598">
        <ele>323</ele>
        <time>2022-04-11T17:02:36Z</time>
      </trkpt>
      <trkpt lat="44.19026" lon="4.32641">
        <ele>322</ele>
        <time>2022-04-11T17:02:42Z</time>
      </trkpt>
      <trkpt lat="44.19015" lon="4.32672">
        <ele>322</ele>
        <time>2022-04-11T17:02:46Z</time>
      </trkpt>
      <trkpt lat="44.19002" lon="4.32766">
        <ele>320</ele>
        <time>2022-04-11T17:02:58Z</time>
      </trkpt>
      <trkpt lat="44.19007" lon="4.32814">
        <ele>319</ele>
        <time>2022-04-11T17:03:05Z</time>
      </trkpt>
      <trkpt lat="44.19024" lon="4.32838">
        <ele>317</ele>
        <time>2022-04-11T17:03:09Z</time>
      </trkpt>
      <trkpt lat="44.19037" lon="4.32894">
        <ele>316</ele>
        <time>2022-04-11T17:03:16Z</time>
      </trkpt>
      <trkpt lat="44.19078" lon="4.3303">
        <ele>313</ele>
        <time>2022-04-11T17:03:35Z</time>
      </trkpt>
      <trkpt lat="44.19083" lon="4.3309">
        <ele>312</ele>
        <time>2022-04-11T17:03:43Z</time>
      </trkpt>
      <trkpt lat="44.19096" lon="4.33173">
        <ele>311</ele>
        <time>2022-04-11T17:03:54Z</time>
      </trkpt>
      <trkpt lat="44.19107" lon="4.33184">
        <ele>310</ele>
        <time>2022-04-11T17:03:56Z</time>
      </trkpt>
      <trkpt lat="44.19192" lon="4.33208">
        <ele>309</ele>
        <time>2022-04-11T17:04:12Z</time>
      </trkpt>
      <trkpt lat="44.19229" lon="4.33222">
        <ele>309</ele>
        <time>2022-04-11T17:04:19Z</time>
      </trkpt>
      <trkpt lat="44.19333" lon="4.33246">
        <ele>308</ele>
        <time>2022-04-11T17:04:37Z</time>
      </trkpt>
      <trkpt lat="44.19444" lon="4.33283">
        <ele>306</ele>
        <time>2022-04-11T17:04:58Z</time>
      </trkpt>
      <trkpt lat="44.19493" lon="4.33295">
        <ele>305</ele>
        <time>2022-04-11T17:05:06Z</time>
      </trkpt>
      <trkpt lat="44.19512" lon="4.33302">
        <ele>304</ele>
        <time>2022-04-11T17:05:10Z</time>
      </trkpt>
      <trkpt lat="44.19582" lon="4.33349">
        <ele>303</ele>
        <time>2022-04-11T17:05:24Z</time>
      </trkpt>
      <trkpt lat="44.19614" lon="4.33377">
        <ele>303</ele>
        <time>2022-04-11T17:05:30Z</time>
      </trkpt>
      <trkpt lat="44.19673" lon="4.33418">
        <ele>300</ele>
        <time>2022-04-11T17:05:42Z</time>
      </trkpt>
      <trkpt lat="44.19725" lon="4.33446">
        <ele>301</ele>
        <time>2022-04-11T17:05:52Z</time>
      </trkpt>
      <trkpt lat="44.19876" lon="4.33504">
        <ele>300</ele>
        <time>2022-04-11T17:06:20Z</time>
      </trkpt>
      <trkpt lat="44.19991" lon="4.33527">
        <ele>302</ele>
        <time>2022-04-11T17:06:41Z</time>
      </trkpt>
      <trkpt lat="44.20026" lon="4.33527">
        <ele>303</ele>
        <time>2022-04-11T17:06:47Z</time>
      </trkpt>
      <trkpt lat="44.20064" lon="4.33539">
        <ele>303</ele>
        <time>2022-04-11T17:06:54Z</time>
      </trkpt>
      <trkpt lat="44.20163" lon="4.33558">
        <ele>305</ele>
        <time>2022-04-11T17:07:12Z</time>
      </trkpt>
      <trkpt lat="44.20215" lon="4.3356">
        <ele>306</ele>
        <time>2022-04-11T17:07:21Z</time>
      </trkpt>
      <trkpt lat="44.20286" lon="4.33558">
        <ele>307</ele>
        <time>2022-04-11T17:07:33Z</time>
      </trkpt>
      <trkpt lat="44.20414" lon="4.33581">
        <ele>307</ele>
        <time>2022-04-11T17:07:56Z</time>
      </trkpt>
      <trkpt lat="44.20428" lon="4.33581">
        <ele>307</ele>
        <time>2022-04-11T17:07:59Z</time>
      </trkpt>
      <trkpt lat="44.2045" lon="4.33575">
        <ele>308</ele>
        <time>2022-04-11T17:08:03Z</time>
      </trkpt>
      <trkpt lat="44.20459" lon="4.33575">
        <ele>308</ele>
        <time>2022-04-11T17:08:05Z</time>
      </trkpt>
      <trkpt lat="44.20495" lon="4.33594">
        <ele>308</ele>
        <time>2022-04-11T17:08:11Z</time>
      </trkpt>
      <trkpt lat="44.20508" lon="4.33598">
        <ele>308</ele>
        <time>2022-04-11T17:08:14Z</time>
      </trkpt>
      <trkpt lat="44.20554" lon="4.33602">
        <ele>309</ele>
        <time>2022-04-11T17:08:22Z</time>
      </trkpt>
      <trkpt lat="44.20621" lon="4.33618">
        <ele>310</ele>
        <time>2022-04-11T17:08:34Z</time>
      </trkpt>
      <trkpt lat="44.20645" lon="4.33633">
        <ele>309</ele>
        <time>2022-04-11T17:08:39Z</time>
      </trkpt>
      <trkpt lat="44.20666" lon="4.33656">
        <ele>308</ele>
        <time>2022-04-11T17:08:43Z</time>
      </trkpt>
      <trkpt lat="44.20836" lon="4.3381">
        <ele>302</ele>
        <time>2022-04-11T17:09:20Z</time>
      </trkpt>
      <trkpt lat="44.20854" lon="4.33829">
        <ele>303</ele>
        <time>2022-04-11T17:09:24Z</time>
      </trkpt>
      <trkpt lat="44.20885" lon="4.33887">
        <ele>304</ele>
        <time>2022-04-11T17:09:33Z</time>
      </trkpt>
      <trkpt lat="44.2091" lon="4.3392">
        <ele>305</ele>
        <time>2022-04-11T17:09:39Z</time>
      </trkpt>
      <trkpt lat="44.21" lon="4.33991">
        <ele>310</ele>
        <time>2022-04-11T17:09:57Z</time>
      </trkpt>
      <trkpt lat="44.21019" lon="4.34">
        <ele>311</ele>
        <time>2022-04-11T17:10:01Z</time>
      </trkpt>
      <trkpt lat="44.21076" lon="4.34008">
        <ele>313</ele>
        <time>2022-04-11T17:10:11Z</time>
      </trkpt>
      <trkpt lat="44.21091" lon="4.34021">
        <ele>314</ele>
        <time>2022-04-11T17:10:14Z</time>
      </trkpt>
      <trkpt lat="44.21109" lon="4.34027">
        <ele>314</ele>
        <time>2022-04-11T17:10:18Z</time>
      </trkpt>
      <trkpt lat="44.21136" lon="4.34027">
        <ele>314</ele>
        <time>2022-04-11T17:10:22Z</time>
      </trkpt>
      <trkpt lat="44.21348" lon="4.33997">
        <ele>310</ele>
        <time>2022-04-11T17:11:00Z</time>
      </trkpt>
      <trkpt lat="44.21465" lon="4.33998">
        <ele>312</ele>
        <time>2022-04-11T17:11:21Z</time>
      </trkpt>
      <trkpt lat="44.21519" lon="4.34006">
        <ele>313</ele>
        <time>2022-04-11T17:11:31Z</time>
      </trkpt>
      <trkpt lat="44.21552" lon="4.34019">
        <ele>314</ele>
        <time>2022-04-11T17:11:37Z</time>
      </trkpt>
      <trkpt lat="44.21576" lon="4.34031">
        <ele>314</ele>
        <time>2022-04-11T17:11:41Z</time>
      </trkpt>
      <trkpt lat="44.21604" lon="4.34049">
        <ele>315</ele>
        <time>2022-04-11T17:11:47Z</time>
      </trkpt>
      <trkpt lat="44.21637" lon="4.34074">
        <ele>316</ele>
        <time>2022-04-11T17:11:54Z</time>
      </trkpt>
      <trkpt lat="44.21678" lon="4.34118">
        <ele>319</ele>
        <time>2022-04-11T17:12:03Z</time>
      </trkpt>
      <trkpt lat="44.21905" lon="4.34453">
        <ele>322</ele>
        <time>2022-04-11T17:13:02Z</time>
      </trkpt>
      <trkpt lat="44.21961" lon="4.34507">
        <ele>319</ele>
        <time>2022-04-11T17:13:14Z</time>
      </trkpt>
      <trkpt lat="44.22225" lon="4.346">
        <ele>313</ele>
        <time>2022-04-11T17:14:02Z</time>
      </trkpt>
      <trkpt lat="44.22344" lon="4.34677">
        <ele>310</ele>
        <time>2022-04-11T17:14:25Z</time>
      </trkpt>
      <trkpt lat="44.22404" lon="4.34725">
        <ele>308</ele>
        <time>2022-04-11T17:14:38Z</time>
      </trkpt>
      <trkpt lat="44.22431" lon="4.34753">
        <ele>307</ele>
        <time>2022-04-11T17:14:44Z</time>
      </trkpt>
      <trkpt lat="44.22433" lon="4.34764">
        <ele>307</ele>
        <time>2022-04-11T17:14:45Z</time>
      </trkpt>
      <trkpt lat="44.22462" lon="4.34829">
        <ele>305</ele>
        <time>2022-04-11T17:14:55Z</time>
      </trkpt>
      <trkpt lat="44.22507" lon="4.34945">
        <ele>304</ele>
        <time>2022-04-11T17:15:12Z</time>
      </trkpt>
      <trkpt lat="44.22527" lon="4.35015">
        <ele>303</ele>
        <time>2022-04-11T17:15:21Z</time>
      </trkpt>
      <trkpt lat="44.22534" lon="4.35092">
        <ele>303</ele>
        <time>2022-04-11T17:15:31Z</time>
      </trkpt>
      <trkpt lat="44.22521" lon="4.35211">
        <ele>304</ele>
        <time>2022-04-11T17:15:47Z</time>
      </trkpt>
      <trkpt lat="44.22519" lon="4.35254">
        <ele>303</ele>
        <time>2022-04-11T17:15:52Z</time>
      </trkpt>
      <trkpt lat="44.22522" lon="4.35281">
        <ele>302</ele>
        <time>2022-04-11T17:15:56Z</time>
      </trkpt>
      <trkpt lat="44.22529" lon="4.35308">
        <ele>301</ele>
        <time>2022-04-11T17:15:59Z</time>
      </trkpt>
      <trkpt lat="44.22546" lon="4.35348">
        <ele>301</ele>
        <time>2022-04-11T17:16:05Z</time>
      </trkpt>
      <trkpt lat="44.22627" lon="4.35478">
        <ele>301</ele>
        <time>2022-04-11T17:16:27Z</time>
      </trkpt>
      <trkpt lat="44.22649" lon="4.35524">
        <ele>300</ele>
        <time>2022-04-11T17:16:34Z</time>
      </trkpt>
      <trkpt lat="44.22658" lon="4.35562">
        <ele>299</ele>
        <time>2022-04-11T17:16:39Z</time>
      </trkpt>
      <trkpt lat="44.22663" lon="4.35603">
        <ele>299</ele>
        <time>2022-04-11T17:16:45Z</time>
      </trkpt>
      <trkpt lat="44.22664" lon="4.35644">
        <ele>300</ele>
        <time>2022-04-11T17:16:50Z</time>
      </trkpt>
      <trkpt lat="44.22712" lon="4.36369">
        <ele>297</ele>
        <time>2022-04-11T17:18:23Z</time>
      </trkpt>
      <trkpt lat="44.22724" lon="4.3645">
        <ele>296</ele>
        <time>2022-04-11T17:18:33Z</time>
      </trkpt>
      <trkpt lat="44.22734" lon="4.36477">
        <ele>295</ele>
        <time>2022-04-11T17:18:37Z</time>
      </trkpt>
      <trkpt lat="44.22753" lon="4.36516">
        <ele>294</ele>
        <time>2022-04-11T17:18:43Z</time>
      </trkpt>
      <trkpt lat="44.22818" lon="4.36626">
        <ele>294</ele>
        <time>2022-04-11T17:19:01Z</time>
      </trkpt>
      <trkpt lat="44.22866" lon="4.367">
        <ele>296</ele>
        <time>2022-04-11T17:19:14Z</time>
      </trkpt>
      <trkpt lat="44.22971" lon="4.36713">
        <ele>296</ele>
        <time>2022-04-11T17:19:33Z</time>
      </trkpt>
      <trkpt lat="44.23005" lon="4.36734">
        <ele>295</ele>
        <time>2022-04-11T17:19:39Z</time>
      </trkpt>
      <trkpt lat="44.23125" lon="4.36855">
        <ele>297</ele>
        <time>2022-04-11T17:20:06Z</time>
      </trkpt>
      <trkpt lat="44.23143" lon="4.36878">
        <ele>297</ele>
        <time>2022-04-11T17:20:10Z</time>
      </trkpt>
      <trkpt lat="44.23289" lon="4.37147">
        <ele>299</ele>
        <time>2022-04-11T17:20:53Z</time>
      </trkpt>
      <trkpt lat="44.23321" lon="4.37199">
        <ele>300</ele>
        <time>2022-04-11T17:21:02Z</time>
      </trkpt>
      <trkpt lat="44.23335" lon="4.37216">
        <ele>300</ele>
        <time>2022-04-11T17:21:05Z</time>
      </trkpt>
      <trkpt lat="44.2336" lon="4.37236">
        <ele>300</ele>
        <time>2022-04-11T17:21:10Z</time>
      </trkpt>
      <trkpt lat="44.23401" lon="4.37256">
        <ele>300</ele>
        <time>2022-04-11T17:21:18Z</time>
      </trkpt>
      <trkpt lat="44.23464" lon="4.37282">
        <ele>300</ele>
        <time>2022-04-11T17:21:30Z</time>
      </trkpt>
      <trkpt lat="44.23484" lon="4.37296">
        <ele>300</ele>
        <time>2022-04-11T17:21:34Z</time>
      </trkpt>
      <trkpt lat="44.235" lon="4.37313">
        <ele>300</ele>
        <time>2022-04-11T17:21:37Z</time>
      </trkpt>
      <trkpt lat="44.23758" lon="4.37734">
        <ele>295</ele>
        <time>2022-04-11T17:22:48Z</time>
      </trkpt>
      <trkpt lat="44.23774" lon="4.37769">
        <ele>295</ele>
        <time>2022-04-11T17:22:53Z</time>
      </trkpt>
      <trkpt lat="44.23786" lon="4.37806">
        <ele>294</ele>
        <time>2022-04-11T17:22:58Z</time>
      </trkpt>
      <trkpt lat="44.23792" lon="4.37862">
        <ele>294</ele>
        <time>2022-04-11T17:23:06Z</time>
      </trkpt>
      <trkpt lat="44.23805" lon="4.38077">
        <ele>296</ele>
        <time>2022-04-11T17:23:33Z</time>
      </trkpt>
      <trkpt lat="44.23802" lon="4.38103">
        <ele>296</ele>
        <time>2022-04-11T17:23:36Z</time>
      </trkpt>
      <trkpt lat="44.23692" lon="4.38522">
        <ele>302</ele>
        <time>2022-04-11T17:24:33Z</time>
      </trkpt>
      <trkpt lat="44.23677" lon="4.3857">
        <ele>304</ele>
        <time>2022-04-11T17:24:40Z</time>
      </trkpt>
      <trkpt lat="44.23661" lon="4.38602">
        <ele>305</ele>
        <time>2022-04-11T17:24:45Z</time>
      </trkpt>
      <trkpt lat="44.23644" lon="4.38624">
        <ele>305</ele>
        <time>2022-04-11T17:24:49Z</time>
      </trkpt>
      <trkpt lat="44.23623" lon="4.38642">
        <ele>304</ele>
        <time>2022-04-11T17:24:53Z</time>
      </trkpt>
      <trkpt lat="44.23598" lon="4.38655">
        <ele>304</ele>
        <time>2022-04-11T17:24:58Z</time>
      </trkpt>
      <trkpt lat="44.23499" lon="4.38691">
        <ele>306</ele>
        <time>2022-04-11T17:25:16Z</time>
      </trkpt>
      <trkpt lat="44.2346" lon="4.38709">
        <ele>307</ele>
        <time>2022-04-11T17:25:24Z</time>
      </trkpt>
      <trkpt lat="44.23433" lon="4.38734">
        <ele>307</ele>
        <time>2022-04-11T17:25:29Z</time>
      </trkpt>
      <trkpt lat="44.23424" lon="4.38753">
        <ele>308</ele>
        <time>2022-04-11T17:25:32Z</time>
      </trkpt>
      <trkpt lat="44.23415" lon="4.38784">
        <ele>308</ele>
        <time>2022-04-11T17:25:37Z</time>
      </trkpt>
      <trkpt lat="44.23385" lon="4.38908">
        <ele>312</ele>
        <time>2022-04-11T17:25:53Z</time>
      </trkpt>
      <trkpt lat="44.2337" lon="4.38947">
        <ele>312</ele>
        <time>2022-04-11T17:25:59Z</time>
      </trkpt>
      <trkpt lat="44.23359" lon="4.38963">
        <ele>312</ele>
        <time>2022-04-11T17:26:02Z</time>
      </trkpt>
      <trkpt lat="44.23349" lon="4.3897">
        <ele>311</ele>
        <time>2022-04-11T17:26:04Z</time>
      </trkpt>
      <trkpt lat="44.23335" lon="4.38966">
        <ele>311</ele>
        <time>2022-04-11T17:26:06Z</time>
      </trkpt>
      <trkpt lat="44.23251" lon="4.38894">
        <ele>306</ele>
        <time>2022-04-11T17:26:24Z</time>
      </trkpt>
      <trkpt lat="44.23238" lon="4.38886">
        <ele>305</ele>
        <time>2022-04-11T17:26:26Z</time>
      </trkpt>
      <trkpt lat="44.23178" lon="4.38867">
        <ele>302</ele>
        <time>2022-04-11T17:26:37Z</time>
      </trkpt>
      <trkpt lat="44.23167" lon="4.38871">
        <ele>302</ele>
        <time>2022-04-11T17:26:39Z</time>
      </trkpt>
      <trkpt lat="44.23132" lon="4.38893">
        <ele>301</ele>
        <time>2022-04-11T17:26:46Z</time>
      </trkpt>
      <trkpt lat="44.23011" lon="4.39013">
        <ele>296</ele>
        <time>2022-04-11T17:27:13Z</time>
      </trkpt>
      <trkpt lat="44.23002" lon="4.39026">
        <ele>295</ele>
        <time>2022-04-11T17:27:15Z</time>
      </trkpt>
      <trkpt lat="44.22979" lon="4.39131">
        <ele>290</ele>
        <time>2022-04-11T17:27:29Z</time>
      </trkpt>
      <trkpt lat="44.2295" lon="4.39167">
        <ele>288</ele>
        <time>2022-04-11T17:27:36Z</time>
      </trkpt>
      <trkpt lat="44.22926" lon="4.39253">
        <ele>284</ele>
        <time>2022-04-11T17:27:48Z</time>
      </trkpt>
      <trkpt lat="44.22838" lon="4.39453">
        <ele>279</ele>
        <time>2022-04-11T17:28:17Z</time>
      </trkpt>
      <trkpt lat="44.22872" lon="4.39562">
        <ele>280</ele>
        <time>2022-04-11T17:28:33Z</time>
      </trkpt>
      <trkpt lat="44.22833" lon="4.39616">
        <ele>276</ele>
        <time>2022-04-11T17:28:42Z</time>
      </trkpt>
      <trkpt lat="44.22827" lon="4.3968">
        <ele>276</ele>
        <time>2022-04-11T17:28:51Z</time>
      </trkpt>
      <trkpt lat="44.22878" lon="4.39825">
        <ele>273</ele>
        <time>2022-04-11T17:29:11Z</time>
      </trkpt>
      <trkpt lat="44.22865" lon="4.39908">
        <ele>267</ele>
        <time>2022-04-11T17:29:22Z</time>
      </trkpt>
      <trkpt lat="44.22884" lon="4.39968">
        <ele>266</ele>
        <time>2022-04-11T17:29:30Z</time>
      </trkpt>
      <trkpt lat="44.22931" lon="4.40017">
        <ele>265</ele>
        <time>2022-04-11T17:29:41Z</time>
      </trkpt>
      <trkpt lat="44.2298" lon="4.40098">
        <ele>265</ele>
        <time>2022-04-11T17:29:54Z</time>
      </trkpt>
      <trkpt lat="44.2305" lon="4.40364">
        <ele>264</ele>
        <time>2022-04-11T17:30:31Z</time>
      </trkpt>
      <trkpt lat="44.23101" lon="4.40447">
        <ele>257</ele>
        <time>2022-04-11T17:30:44Z</time>
      </trkpt>
      <trkpt lat="44.23127" lon="4.40504">
        <ele>256</ele>
        <time>2022-04-11T17:30:53Z</time>
      </trkpt>
      <trkpt lat="44.23176" lon="4.4053">
        <ele>252</ele>
        <time>2022-04-11T17:31:02Z</time>
      </trkpt>
      <trkpt lat="44.23246" lon="4.40544">
        <ele>248</ele>
        <time>2022-04-11T17:31:15Z</time>
      </trkpt>
      <trkpt lat="44.23259" lon="4.40561">
        <ele>247</ele>
        <time>2022-04-11T17:31:18Z</time>
      </trkpt>
      <trkpt lat="44.2327" lon="4.40582">
        <ele>246</ele>
        <time>2022-04-11T17:31:21Z</time>
      </trkpt>
      <trkpt lat="44.23278" lon="4.40604">
        <ele>246</ele>
        <time>2022-04-11T17:31:25Z</time>
      </trkpt>
      <trkpt lat="44.23282" lon="4.40634">
        <ele>244</ele>
        <time>2022-04-11T17:31:28Z</time>
      </trkpt>
      <trkpt lat="44.23282" lon="4.40666">
        <ele>243</ele>
        <time>2022-04-11T17:31:33Z</time>
      </trkpt>
      <trkpt lat="44.23285" lon="4.40681">
        <ele>243</ele>
        <time>2022-04-11T17:31:35Z</time>
      </trkpt>
      <trkpt lat="44.23309" lon="4.40709">
        <ele>243</ele>
        <time>2022-04-11T17:31:40Z</time>
      </trkpt>
      <trkpt lat="44.23327" lon="4.4072">
        <ele>241</ele>
        <time>2022-04-11T17:31:44Z</time>
      </trkpt>
      <trkpt lat="44.23336" lon="4.40729">
        <ele>240</ele>
        <time>2022-04-11T17:31:46Z</time>
      </trkpt>
      <trkpt lat="44.23382" lon="4.40786">
        <ele>245</ele>
        <time>2022-04-11T17:31:57Z</time>
      </trkpt>
      <trkpt lat="44.23401" lon="4.40798">
        <ele>244</ele>
        <time>2022-04-11T17:32:00Z</time>
      </trkpt>
      <trkpt lat="44.2345" lon="4.40813">
        <ele>242</ele>
        <time>2022-04-11T17:32:09Z</time>
      </trkpt>
      <trkpt lat="44.23514" lon="4.40825">
        <ele>239</ele>
        <time>2022-04-11T17:32:21Z</time>
      </trkpt>
      <trkpt lat="44.2358" lon="4.40815">
        <ele>238</ele>
        <time>2022-04-11T17:32:32Z</time>
      </trkpt>
      <trkpt lat="44.23596" lon="4.40815">
        <ele>238</ele>
        <time>2022-04-11T17:32:35Z</time>
      </trkpt>
      <trkpt lat="44.23676" lon="4.40837">
        <ele>232</ele>
        <time>2022-04-11T17:32:50Z</time>
      </trkpt>
      <trkpt lat="44.23703" lon="4.4085">
        <ele>234</ele>
        <time>2022-04-11T17:32:55Z</time>
      </trkpt>
      <trkpt lat="44.23714" lon="4.40862">
        <ele>234</ele>
        <time>2022-04-11T17:32:57Z</time>
      </trkpt>
      <trkpt lat="44.23724" lon="4.40878">
        <ele>235</ele>
        <time>2022-04-11T17:33:00Z</time>
      </trkpt>
      <trkpt lat="44.23742" lon="4.40942">
        <ele>234</ele>
        <time>2022-04-11T17:33:09Z</time>
      </trkpt>
      <trkpt lat="44.23756" lon="4.40978">
        <ele>233</ele>
        <time>2022-04-11T17:33:14Z</time>
      </trkpt>
      <trkpt lat="44.23768" lon="4.40993">
        <ele>233</ele>
        <time>2022-04-11T17:33:17Z</time>
      </trkpt>
      <trkpt lat="44.23795" lon="4.41012">
        <ele>235</ele>
        <time>2022-04-11T17:33:22Z</time>
      </trkpt>
      <trkpt lat="44.2384" lon="4.41023">
        <ele>237</ele>
        <time>2022-04-11T17:33:30Z</time>
      </trkpt>
      <trkpt lat="44.23853" lon="4.41029">
        <ele>239</ele>
        <time>2022-04-11T17:33:33Z</time>
      </trkpt>
      <trkpt lat="44.23867" lon="4.41051">
        <ele>239</ele>
        <time>2022-04-11T17:33:37Z</time>
      </trkpt>
      <trkpt lat="44.23879" lon="4.41115">
        <ele>236</ele>
        <time>2022-04-11T17:33:45Z</time>
      </trkpt>
      <trkpt lat="44.23886" lon="4.41137">
        <ele>234</ele>
        <time>2022-04-11T17:33:48Z</time>
      </trkpt>
      <trkpt lat="44.23894" lon="4.41149">
        <ele>232</ele>
        <time>2022-04-11T17:33:50Z</time>
      </trkpt>
      <trkpt lat="44.23906" lon="4.41159">
        <ele>229</ele>
        <time>2022-04-11T17:33:53Z</time>
      </trkpt>
      <trkpt lat="44.23948" lon="4.41178">
        <ele>231</ele>
        <time>2022-04-11T17:34:01Z</time>
      </trkpt>
      <trkpt lat="44.23958" lon="4.41187">
        <ele>233</ele>
        <time>2022-04-11T17:34:03Z</time>
      </trkpt>
      <trkpt lat="44.23965" lon="4.412">
        <ele>233</ele>
        <time>2022-04-11T17:34:05Z</time>
      </trkpt>
      <trkpt lat="44.23968" lon="4.41215">
        <ele>234</ele>
        <time>2022-04-11T17:34:07Z</time>
      </trkpt>
      <trkpt lat="44.23967" lon="4.41233">
        <ele>233</ele>
        <time>2022-04-11T17:34:09Z</time>
      </trkpt>
      <trkpt lat="44.23953" lon="4.41268">
        <ele>232</ele>
        <time>2022-04-11T17:34:14Z</time>
      </trkpt>
      <trkpt lat="44.23954" lon="4.41302">
        <ele>233</ele>
        <time>2022-04-11T17:34:19Z</time>
      </trkpt>
      <trkpt lat="44.23984" lon="4.41383">
        <ele>229</ele>
        <time>2022-04-11T17:34:30Z</time>
      </trkpt>
      <trkpt lat="44.23991" lon="4.4141">
        <ele>226</ele>
        <time>2022-04-11T17:34:34Z</time>
      </trkpt>
      <trkpt lat="44.23997" lon="4.41522">
        <ele>221</ele>
        <time>2022-04-11T17:34:48Z</time>
      </trkpt>
      <trkpt lat="44.24004" lon="4.41545">
        <ele>221</ele>
        <time>2022-04-11T17:34:51Z</time>
      </trkpt>
      <trkpt lat="44.24014" lon="4.41565">
        <ele>221</ele>
        <time>2022-04-11T17:34:54Z</time>
      </trkpt>
      <trkpt lat="44.24024" lon="4.41577">
        <ele>219</ele>
        <time>2022-04-11T17:34:57Z</time>
      </trkpt>
      <trkpt lat="44.24036" lon="4.41586">
        <ele>217</ele>
        <time>2022-04-11T17:34:59Z</time>
      </trkpt>
      <trkpt lat="44.24087" lon="4.41601">
        <ele>209</ele>
        <time>2022-04-11T17:35:08Z</time>
      </trkpt>
      <trkpt lat="44.24099" lon="4.41613">
        <ele>211</ele>
        <time>2022-04-11T17:35:11Z</time>
      </trkpt>
      <trkpt lat="44.24108" lon="4.41631">
        <ele>211</ele>
        <time>2022-04-11T17:35:14Z</time>
      </trkpt>
      <trkpt lat="44.24116" lon="4.41658">
        <ele>211</ele>
        <time>2022-04-11T17:35:18Z</time>
      </trkpt>
      <trkpt lat="44.24118" lon="4.41687">
        <ele>211</ele>
        <time>2022-04-11T17:35:21Z</time>
      </trkpt>
      <trkpt lat="44.24126" lon="4.4171">
        <ele>210</ele>
        <time>2022-04-11T17:35:25Z</time>
      </trkpt>
      <trkpt lat="44.2419" lon="4.41801">
        <ele>204</ele>
        <time>2022-04-11T17:35:41Z</time>
      </trkpt>
      <trkpt lat="44.2425" lon="4.41902">
        <ele>194</ele>
        <time>2022-04-11T17:35:58Z</time>
      </trkpt>
      <trkpt lat="44.24265" lon="4.41916">
        <ele>194</ele>
        <time>2022-04-11T17:36:01Z</time>
      </trkpt>
      <trkpt lat="44.24283" lon="4.41922">
        <ele>194</ele>
        <time>2022-04-11T17:36:04Z</time>
      </trkpt>
      <trkpt lat="44.24362" lon="4.41897">
        <ele>195</ele>
        <time>2022-04-11T17:36:18Z</time>
      </trkpt>
      <trkpt lat="44.24377" lon="4.41887">
        <ele>197</ele>
        <time>2022-04-11T17:36:21Z</time>
      </trkpt>
      <trkpt lat="44.24387" lon="4.41865">
        <ele>199</ele>
        <time>2022-04-11T17:36:25Z</time>
      </trkpt>
      <trkpt lat="44.24389" lon="4.41838">
        <ele>198</ele>
        <time>2022-04-11T17:36:28Z</time>
      </trkpt>
      <trkpt lat="44.24379" lon="4.41659">
        <ele>197</ele>
        <time>2022-04-11T17:36:51Z</time>
      </trkpt>
      <trkpt lat="44.24398" lon="4.41624">
        <ele>197</ele>
        <time>2022-04-11T17:36:57Z</time>
      </trkpt>
      <trkpt lat="44.24483" lon="4.41595">
        <ele>190</ele>
        <time>2022-04-11T17:37:12Z</time>
      </trkpt>
      <trkpt lat="44.24551" lon="4.41602">
        <ele>192</ele>
        <time>2022-04-11T17:37:24Z</time>
      </trkpt>
      <trkpt lat="44.24629" lon="4.41704">
        <ele>186</ele>
        <time>2022-04-11T17:37:43Z</time>
      </trkpt>
      <trkpt lat="44.24781" lon="4.41773">
        <ele>179</ele>
        <time>2022-04-11T17:38:12Z</time>
      </trkpt>
      <trkpt lat="44.24825" lon="4.41851">
        <ele>176</ele>
        <time>2022-04-11T17:38:24Z</time>
      </trkpt>
      <trkpt lat="44.24835" lon="4.41889">
        <ele>175</ele>
        <time>2022-04-11T17:38:30Z</time>
      </trkpt>
      <trkpt lat="44.24833" lon="4.41918">
        <ele>174</ele>
        <time>2022-04-11T17:38:33Z</time>
      </trkpt>
      <trkpt lat="44.24817" lon="4.41943">
        <ele>174</ele>
        <time>2022-04-11T17:38:38Z</time>
      </trkpt>
      <trkpt lat="44.24782" lon="4.4198">
        <ele>170</ele>
        <time>2022-04-11T17:38:45Z</time>
      </trkpt>
      <trkpt lat="44.24764" lon="4.42003">
        <ele>166</ele>
        <time>2022-04-11T17:38:50Z</time>
      </trkpt>
      <trkpt lat="44.24755" lon="4.42022">
        <ele>163</ele>
        <time>2022-04-11T17:38:53Z</time>
      </trkpt>
      <trkpt lat="44.24754" lon="4.42046">
        <ele>163</ele>
        <time>2022-04-11T17:38:56Z</time>
      </trkpt>
      <trkpt lat="44.24777" lon="4.42188">
        <ele>167</ele>
        <time>2022-04-11T17:39:14Z</time>
      </trkpt>
      <trkpt lat="44.24781" lon="4.42239">
        <ele>164</ele>
        <time>2022-04-11T17:39:21Z</time>
      </trkpt>
      <trkpt lat="44.24777" lon="4.42272">
        <ele>162</ele>
        <time>2022-04-11T17:39:25Z</time>
      </trkpt>
      <trkpt lat="44.24763" lon="4.42341">
        <ele>157</ele>
        <time>2022-04-11T17:39:34Z</time>
      </trkpt>
      <trkpt lat="44.24766" lon="4.42369">
        <ele>156</ele>
        <time>2022-04-11T17:39:38Z</time>
      </trkpt>
      <trkpt lat="44.24774" lon="4.42385">
        <ele>156</ele>
        <time>2022-04-11T17:39:40Z</time>
      </trkpt>
      <trkpt lat="44.2484" lon="4.42456">
        <ele>154</ele>
        <time>2022-04-11T17:39:55Z</time>
      </trkpt>
      <trkpt lat="44.24853" lon="4.42476">
        <ele>156</ele>
        <time>2022-04-11T17:39:59Z</time>
      </trkpt>
      <trkpt lat="44.2486" lon="4.42504">
        <ele>156</ele>
        <time>2022-04-11T17:40:02Z</time>
      </trkpt>
      <trkpt lat="44.24863" lon="4.42529">
        <ele>157</ele>
        <time>2022-04-11T17:40:06Z</time>
      </trkpt>
      <trkpt lat="44.24861" lon="4.42547">
        <ele>157</ele>
        <time>2022-04-11T17:40:08Z</time>
      </trkpt>
      <trkpt lat="44.24855" lon="4.42568">
        <ele>155</ele>
        <time>2022-04-11T17:40:11Z</time>
      </trkpt>
      <trkpt lat="44.24845" lon="4.42588">
        <ele>153</ele>
        <time>2022-04-11T17:40:14Z</time>
      </trkpt>
      <trkpt lat="44.24832" lon="4.42604">
        <ele>152</ele>
        <time>2022-04-11T17:40:17Z</time>
      </trkpt>
      <trkpt lat="44.24815" lon="4.42616">
        <ele>152</ele>
        <time>2022-04-11T17:40:20Z</time>
      </trkpt>
      <trkpt lat="44.24779" lon="4.42634">
        <ele>151</ele>
        <time>2022-04-11T17:40:27Z</time>
      </trkpt>
      <trkpt lat="44.24771" lon="4.42642">
        <ele>151</ele>
        <time>2022-04-11T17:40:29Z</time>
      </trkpt>
      <trkpt lat="44.24757" lon="4.42668">
        <ele>150</ele>
        <time>2022-04-11T17:40:33Z</time>
      </trkpt>
      <trkpt lat="44.24749" lon="4.427">
        <ele>148</ele>
        <time>2022-04-11T17:40:37Z</time>
      </trkpt>
      <trkpt lat="44.24736" lon="4.42781">
        <ele>146</ele>
        <time>2022-04-11T17:40:48Z</time>
      </trkpt>
      <trkpt lat="44.24737" lon="4.42807">
        <ele>144</ele>
        <time>2022-04-11T17:40:51Z</time>
      </trkpt>
      <trkpt lat="44.2475" lon="4.4284">
        <ele>141</ele>
        <time>2022-04-11T17:40:56Z</time>
      </trkpt>
      <trkpt lat="44.24886" lon="4.43078">
        <ele>146</ele>
        <time>2022-04-11T17:41:35Z</time>
      </trkpt>
      <trkpt lat="44.2489" lon="4.43102">
        <ele>146</ele>
        <time>2022-04-11T17:41:38Z</time>
      </trkpt>
      <trkpt lat="44.24888" lon="4.43128">
        <ele>146</ele>
        <time>2022-04-11T17:41:41Z</time>
      </trkpt>
      <trkpt lat="44.24881" lon="4.43154">
        <ele>145</ele>
        <time>2022-04-11T17:41:45Z</time>
      </trkpt>
      <trkpt lat="44.24871" lon="4.43172">
        <ele>142</ele>
        <time>2022-04-11T17:41:48Z</time>
      </trkpt>
      <trkpt lat="44.24832" lon="4.43228">
        <ele>133</ele>
        <time>2022-04-11T17:41:58Z</time>
      </trkpt>
      <trkpt lat="44.24821" lon="4.43251">
        <ele>134</ele>
        <time>2022-04-11T17:42:01Z</time>
      </trkpt>
      <trkpt lat="44.24818" lon="4.43274">
        <ele>134</ele>
        <time>2022-04-11T17:42:04Z</time>
      </trkpt>
      <trkpt lat="44.2482" lon="4.43353">
        <ele>134</ele>
        <time>2022-04-11T17:42:14Z</time>
      </trkpt>
      <trkpt lat="44.24811" lon="4.43398">
        <ele>133</ele>
        <time>2022-04-11T17:42:20Z</time>
      </trkpt>
      <trkpt lat="44.24798" lon="4.43422">
        <ele>132</ele>
        <time>2022-04-11T17:42:24Z</time>
      </trkpt>
      <trkpt lat="44.24784" lon="4.4344">
        <ele>131</ele>
        <time>2022-04-11T17:42:28Z</time>
      </trkpt>
      <trkpt lat="44.24698" lon="4.43506">
        <ele>126</ele>
        <time>2022-04-11T17:42:45Z</time>
      </trkpt>
      <trkpt lat="44.24686" lon="4.43519">
        <ele>126</ele>
        <time>2022-04-11T17:42:48Z</time>
      </trkpt>
      <trkpt lat="44.24677" lon="4.43534">
        <ele>125</ele>
        <time>2022-04-11T17:42:50Z</time>
      </trkpt>
      <trkpt lat="44.24671" lon="4.4355">
        <ele>124</ele>
        <time>2022-04-11T17:42:53Z</time>
      </trkpt>
      <trkpt lat="44.24632" lon="4.4369">
        <ele>126</ele>
        <time>2022-04-11T17:43:12Z</time>
      </trkpt>
      <trkpt lat="44.24618" lon="4.43718">
        <ele>124</ele>
        <time>2022-04-11T17:43:16Z</time>
      </trkpt>
      <trkpt lat="44.24606" lon="4.43735">
        <ele>121</ele>
        <time>2022-04-11T17:43:19Z</time>
      </trkpt>
      <trkpt lat="44.24553" lon="4.43796">
        <ele>121</ele>
        <time>2022-04-11T17:43:31Z</time>
      </trkpt>
      <trkpt lat="44.24541" lon="4.43821">
        <ele>121</ele>
        <time>2022-04-11T17:43:35Z</time>
      </trkpt>
      <trkpt lat="44.24536" lon="4.43845">
        <ele>120</ele>
        <time>2022-04-11T17:43:38Z</time>
      </trkpt>
      <trkpt lat="44.24524" lon="4.43957">
        <ele>115</ele>
        <time>2022-04-11T17:43:53Z</time>
      </trkpt>
      <trkpt lat="44.24505" lon="4.44072">
        <ele>110</ele>
        <time>2022-04-11T17:44:08Z</time>
      </trkpt>
      <trkpt lat="44.24494" lon="4.44104">
        <ele>110</ele>
        <time>2022-04-11T17:44:12Z</time>
      </trkpt>
      <trkpt lat="44.24481" lon="4.44127">
        <ele>109</ele>
        <time>2022-04-11T17:44:16Z</time>
      </trkpt>
      <trkpt lat="44.24413" lon="4.44204">
        <ele>100</ele>
        <time>2022-04-11T17:44:32Z</time>
      </trkpt>
      <trkpt lat="44.24405" lon="4.4422">
        <ele>100</ele>
        <time>2022-04-11T17:44:34Z</time>
      </trkpt>
      <trkpt lat="44.244" lon="4.44239">
        <ele>99</ele>
        <time>2022-04-11T17:44:37Z</time>
      </trkpt>
      <trkpt lat="44.24399" lon="4.44258">
        <ele>98</ele>
        <time>2022-04-11T17:44:39Z</time>
      </trkpt>
      <trkpt lat="44.24402" lon="4.44279">
        <ele>98</ele>
        <time>2022-04-11T17:44:42Z</time>
      </trkpt>
      <trkpt lat="44.24413" lon="4.44317">
        <ele>98</ele>
        <time>2022-04-11T17:44:47Z</time>
      </trkpt>
      <trkpt lat="44.24458" lon="4.44433">
        <ele>98</ele>
        <time>2022-04-11T17:45:04Z</time>
      </trkpt>
      <trkpt lat="44.24509" lon="4.44521">
        <ele>96</ele>
        <time>2022-04-11T17:45:18Z</time>
      </trkpt>
      <trkpt lat="44.24693" lon="4.4482">
        <ele>90</ele>
        <time>2022-04-11T17:46:09Z</time>
      </trkpt>
      <trkpt lat="44.24705" lon="4.44828">
        <ele>91</ele>
        <time>2022-04-11T17:46:11Z</time>
      </trkpt>
      <trkpt lat="44.24722" lon="4.44833">
        <ele>92</ele>
        <time>2022-04-11T17:46:14Z</time>
      </trkpt>
      <trkpt lat="44.24785" lon="4.44829">
        <ele>95</ele>
        <time>2022-04-11T17:46:25Z</time>
      </trkpt>
      <trkpt lat="44.24792" lon="4.44832">
        <ele>94</ele>
        <time>2022-04-11T17:46:27Z</time>
      </trkpt>
      <trkpt lat="44.248" lon="4.44852">
        <ele>92</ele>
        <time>2022-04-11T17:46:29Z</time>
      </trkpt>
      <trkpt lat="44.24825" lon="4.44979">
        <ele>97</ele>
        <time>2022-04-11T17:46:46Z</time>
      </trkpt>
      <trkpt lat="44.24788" lon="4.44997">
        <ele>95</ele>
        <time>2022-04-11T17:46:53Z</time>
      </trkpt>
      <trkpt lat="44.24732" lon="4.4502">
        <ele>93</ele>
        <time>2022-04-11T17:47:04Z</time>
      </trkpt>
      <trkpt lat="44.24548" lon="4.45092">
        <ele>94</ele>
        <time>2022-04-11T17:47:38Z</time>
      </trkpt>
      <trkpt lat="44.24397" lon="4.45106">
        <ele>92</ele>
        <time>2022-04-11T17:48:05Z</time>
      </trkpt>
      <trkpt lat="44.24322" lon="4.4508">
        <ele>90</ele>
        <time>2022-04-11T17:48:18Z</time>
      </trkpt>
      <trkpt lat="44.24202" lon="4.45017">
        <ele>86</ele>
        <time>2022-04-11T17:48:41Z</time>
      </trkpt>
      <trkpt lat="44.24066" lon="4.44938">
        <ele>82</ele>
        <time>2022-04-11T17:49:07Z</time>
      </trkpt>
      <trkpt lat="44.23934" lon="4.44871">
        <ele>81</ele>
        <time>2022-04-11T17:49:32Z</time>
      </trkpt>
      <trkpt lat="44.23886" lon="4.44852">
        <ele>81</ele>
        <time>2022-04-11T17:49:41Z</time>
      </trkpt>
      <trkpt lat="44.23853" lon="4.44846">
        <ele>82</ele>
        <time>2022-04-11T17:49:47Z</time>
      </trkpt>
      <trkpt lat="44.23825" lon="4.44843">
        <ele>82</ele>
        <time>2022-04-11T17:49:52Z</time>
      </trkpt>
      <trkpt lat="44.23785" lon="4.44849">
        <ele>82</ele>
        <time>2022-04-11T17:49:59Z</time>
      </trkpt>
      <trkpt lat="44.23755" lon="4.44858">
        <ele>81</ele>
        <time>2022-04-11T17:50:05Z</time>
      </trkpt>
      <trkpt lat="44.23703" lon="4.44882">
        <ele>81</ele>
        <time>2022-04-11T17:50:14Z</time>
      </trkpt>
      <trkpt lat="44.23645" lon="4.44913">
        <ele>81</ele>
        <time>2022-04-11T17:50:26Z</time>
      </trkpt>
      <trkpt lat="44.23602" lon="4.44939">
        <ele>81</ele>
        <time>2022-04-11T17:50:34Z</time>
      </trkpt>
      <trkpt lat="44.2357" lon="4.44967">
        <ele>81</ele>
        <time>2022-04-11T17:50:41Z</time>
      </trkpt>
      <trkpt lat="44.23293" lon="4.45301">
        <ele>80</ele>
        <time>2022-04-11T17:51:46Z</time>
      </trkpt>
      <trkpt lat="44.23211" lon="4.45374">
        <ele>80</ele>
        <time>2022-04-11T17:52:03Z</time>
      </trkpt>
      <trkpt lat="44.23161" lon="4.45428">
        <ele>80</ele>
        <time>2022-04-11T17:52:14Z</time>
      </trkpt>
      <trkpt lat="44.2313" lon="4.45476">
        <ele>80</ele>
        <time>2022-04-11T17:52:22Z</time>
      </trkpt>
      <trkpt lat="44.23114" lon="4.45511">
        <ele>80</ele>
        <time>2022-04-11T17:52:28Z</time>
      </trkpt>
      <trkpt lat="44.23092" lon="4.45578">
        <ele>80</ele>
        <time>2022-04-11T17:52:37Z</time>
      </trkpt>
      <trkpt lat="44.23058" lon="4.45704">
        <ele>80</ele>
        <time>2022-04-11T17:52:54Z</time>
      </trkpt>
      <trkpt lat="44.22984" lon="4.45937">
        <ele>85</ele>
        <time>2022-04-11T17:53:27Z</time>
      </trkpt>
      <trkpt lat="44.22912" lon="4.46146">
        <ele>83</ele>
        <time>2022-04-11T17:53:56Z</time>
      </trkpt>
      <trkpt lat="44.22905" lon="4.46173">
        <ele>84</ele>
        <time>2022-04-11T17:54:00Z</time>
      </trkpt>
      <trkpt lat="44.229" lon="4.46198">
        <ele>84</ele>
        <time>2022-04-11T17:54:03Z</time>
      </trkpt>
      <trkpt lat="44.22896" lon="4.46342">
        <ele>85</ele>
        <time>2022-04-11T17:54:22Z</time>
      </trkpt>
      <trkpt lat="44.22891" lon="4.46393">
        <ele>85</ele>
        <time>2022-04-11T17:54:28Z</time>
      </trkpt>
      <trkpt lat="44.22878" lon="4.46474">
        <ele>83</ele>
        <time>2022-04-11T17:54:39Z</time>
      </trkpt>
      <trkpt lat="44.22819" lon="4.46773">
        <ele>83</ele>
        <time>2022-04-11T17:55:18Z</time>
      </trkpt>
      <trkpt lat="44.22803" lon="4.46873">
        <ele>86</ele>
        <time>2022-04-11T17:55:31Z</time>
      </trkpt>
      <trkpt lat="44.2278" lon="4.46971">
        <ele>88</ele>
        <time>2022-04-11T17:55:45Z</time>
      </trkpt>
      <trkpt lat="44.22756" lon="4.47059">
        <ele>87</ele>
        <time>2022-04-11T17:55:57Z</time>
      </trkpt>
      <trkpt lat="44.22735" lon="4.47106">
        <ele>85</ele>
        <time>2022-04-11T17:56:04Z</time>
      </trkpt>
      <trkpt lat="44.22653" lon="4.47263">
        <ele>80</ele>
        <time>2022-04-11T17:56:28Z</time>
      </trkpt>
      <trkpt lat="44.22433" lon="4.47644">
        <ele>79</ele>
        <time>2022-04-11T17:57:31Z</time>
      </trkpt>
      <trkpt lat="44.22287" lon="4.47888">
        <ele>81</ele>
        <time>2022-04-11T17:58:11Z</time>
      </trkpt>
      <trkpt lat="44.22256" lon="4.47936">
        <ele>82</ele>
        <time>2022-04-11T17:58:20Z</time>
      </trkpt>
      <trkpt lat="44.22165" lon="4.48055">
        <ele>85</ele>
        <time>2022-04-11T17:58:42Z</time>
      </trkpt>
      <trkpt lat="44.2197" lon="4.48346">
        <ele>81</ele>
        <time>2022-04-11T17:59:33Z</time>
      </trkpt>
      <trkpt lat="44.21853" lon="4.485">
        <ele>83</ele>
        <time>2022-04-11T18:00:01Z</time>
      </trkpt>
      <trkpt lat="44.21832" lon="4.4852">
        <ele>84</ele>
        <time>2022-04-11T18:00:06Z</time>
      </trkpt>
      <trkpt lat="44.21885" lon="4.48603">
        <ele>87</ele>
        <time>2022-04-11T18:00:20Z</time>
      </trkpt>
      <trkpt lat="44.2188" lon="4.4865">
        <ele>90</ele>
        <time>2022-04-11T18:00:26Z</time>
      </trkpt>
      <trkpt lat="44.21864" lon="4.48735">
        <ele>92</ele>
        <time>2022-04-11T18:00:37Z</time>
      </trkpt>
      <trkpt lat="44.21864" lon="4.4875">
        <ele>92</ele>
        <time>2022-04-11T18:00:39Z</time>
      </trkpt>
      <trkpt lat="44.2187" lon="4.48775">
        <ele>93</ele>
        <time>2022-04-11T18:00:42Z</time>
      </trkpt>
      <trkpt lat="44.21883" lon="4.48802">
        <ele>96</ele>
        <time>2022-04-11T18:00:47Z</time>
      </trkpt>
      <trkpt lat="44.21889" lon="4.48809">
        <ele>97</ele>
        <time>2022-04-11T18:00:48Z</time>
      </trkpt>
      <trkpt lat="44.219" lon="4.48814">
        <ele>99</ele>
        <time>2022-04-11T18:00:50Z</time>
      </trkpt>
      <trkpt lat="44.21917" lon="4.4881">
        <ele>100</ele>
        <time>2022-04-11T18:00:53Z</time>
      </trkpt>
      <trkpt lat="44.21973" lon="4.48769">
        <ele>104</ele>
        <time>2022-04-11T18:01:04Z</time>
      </trkpt>
      <trkpt lat="44.2203" lon="4.48741">
        <ele>107</ele>
        <time>2022-04-11T18:01:15Z</time>
      </trkpt>
      <trkpt lat="44.2206" lon="4.48731">
        <ele>109</ele>
        <time>2022-04-11T18:01:21Z</time>
      </trkpt>
      <trkpt lat="44.22174" lon="4.48706">
        <ele>114</ele>
        <time>2022-04-11T18:01:41Z</time>
      </trkpt>
      <trkpt lat="44.22208" lon="4.48708">
        <ele>116</ele>
        <time>2022-04-11T18:01:47Z</time>
      </trkpt>
      <trkpt lat="44.22224" lon="4.48717">
        <ele>119</ele>
        <time>2022-04-11T18:01:50Z</time>
      </trkpt>
      <trkpt lat="44.22251" lon="4.4876">
        <ele>128</ele>
        <time>2022-04-11T18:01:58Z</time>
      </trkpt>
      <trkpt lat="44.22266" lon="4.48767">
        <ele>131</ele>
        <time>2022-04-11T18:02:00Z</time>
      </trkpt>
      <trkpt lat="44.22289" lon="4.48772">
        <ele>133</ele>
        <time>2022-04-11T18:02:05Z</time>
      </trkpt>
      <trkpt lat="44.22299" lon="4.48772">
        <ele>134</ele>
        <time>2022-04-11T18:02:06Z</time>
      </trkpt>
      <trkpt lat="44.22309" lon="4.48768">
        <ele>135</ele>
        <time>2022-04-11T18:02:08Z</time>
      </trkpt>
      <trkpt lat="44.22325" lon="4.48757">
        <ele>135</ele>
        <time>2022-04-11T18:02:11Z</time>
      </trkpt>
      <trkpt lat="44.22331" lon="4.48747">
        <ele>134</ele>
        <time>2022-04-11T18:02:13Z</time>
      </trkpt>
      <trkpt lat="44.22345" lon="4.48714">
        <ele>135</ele>
        <time>2022-04-11T18:02:18Z</time>
      </trkpt>
      <trkpt lat="44.22389" lon="4.48626">
        <ele>141</ele>
        <time>2022-04-11T18:02:32Z</time>
      </trkpt>
      <trkpt lat="44.22413" lon="4.48558">
        <ele>141</ele>
        <time>2022-04-11T18:02:41Z</time>
      </trkpt>
      <trkpt lat="44.22429" lon="4.48527">
        <ele>139</ele>
        <time>2022-04-11T18:02:46Z</time>
      </trkpt>
      <trkpt lat="44.2245" lon="4.48497">
        <ele>137</ele>
        <time>2022-04-11T18:02:51Z</time>
      </trkpt>
      <trkpt lat="44.2246" lon="4.48488">
        <ele>137</ele>
        <time>2022-04-11T18:02:54Z</time>
      </trkpt>
      <trkpt lat="44.22484" lon="4.4848">
        <ele>138</ele>
        <time>2022-04-11T18:02:58Z</time>
      </trkpt>
      <trkpt lat="44.22496" lon="4.4848">
        <ele>140</ele>
        <time>2022-04-11T18:03:00Z</time>
      </trkpt>
      <trkpt lat="44.22517" lon="4.48486">
        <ele>139</ele>
        <time>2022-04-11T18:03:04Z</time>
      </trkpt>
      <trkpt lat="44.22526" lon="4.48494">
        <ele>140</ele>
        <time>2022-04-11T18:03:06Z</time>
      </trkpt>
      <trkpt lat="44.22537" lon="4.48514">
        <ele>141</ele>
        <time>2022-04-11T18:03:09Z</time>
      </trkpt>
      <trkpt lat="44.22554" lon="4.48573">
        <ele>146</ele>
        <time>2022-04-11T18:03:17Z</time>
      </trkpt>
      <trkpt lat="44.22559" lon="4.48623">
        <ele>149</ele>
        <time>2022-04-11T18:03:24Z</time>
      </trkpt>
      <trkpt lat="44.22558" lon="4.48682">
        <ele>154</ele>
        <time>2022-04-11T18:03:31Z</time>
      </trkpt>
    </trkseg>
  </trk>
</gpx>